Observation data for Levelland on 02/24/2021      Previous  Date  Next       Current Mesonet Observations  Soil Data  Daily Summary Page  Observations in Plain Language
KLD1 240600Z 25010KT 09/M12 A2989 RMK A01 T00861115  RH  023%=      5-min Rain = 0
KLD1 240601Z 25010KT 09/M12 A2989 RMK A01 T00851115  RH  023%=      5-min Rain = 0
KLD1 240602Z 25010KT 08/M11 A2989 RMK A01 T00841114  RH  023%=      5-min Rain = 0
KLD1 240603Z 25010KT 08/M11 A2989 RMK A01 T00831114  RH  023%=      5-min Rain = 0
KLD1 240604Z 25010KT 08/M11 A2989 RMK A01 T00821114  RH  024%=      5-min Rain = 0
KLD1 240605Z 26009KT 08/M11 A2989 RMK A01 T00811114  RH  024%=      5-min Rain = 0
KLD1 240606Z 25009KT 08/M11 A2989 RMK A01 T00801114  RH  024%=      5-min Rain = 0
KLD1 240607Z 25009KT 08/M11 A2989 RMK A01 T00801114  RH  024%=      5-min Rain = 0
KLD1 240608Z 25009KT 08/M11 A2989 RMK A01 T00791114  RH  024%=      5-min Rain = 0
KLD1 240609Z 26009KT 08/M12 A2989 RMK A01 T00791115  RH  024%=      5-min Rain = 0
KLD1 240610Z 25009KT 08/M12 A2989 RMK A01 T00791115  RH  024%=      5-min Rain = 0
KLD1 240611Z 25009KT 08/M11 A2989 RMK A01 T00781114  RH  024%=      5-min Rain = 0
KLD1 240612Z 26008KT 08/M11 A2989 RMK A01 T00771114  RH  025%=      5-min Rain = 0
KLD1 240613Z 26008KT 08/M11 A2989 RMK A01 T00751114  RH  025%=      5-min Rain = 0
KLD1 240614Z 26008KT 08/M11 A2989 RMK A01 T00751113  RH  025%=      5-min Rain = 0
KLD1 240615Z 26008KT 07/M11 A2989 RMK A01 T00741114  RH  025%=      5-min Rain = 0
KLD1 240616Z 26008KT 07/M12 A2989 RMK A01 T00741115  RH  025%=      5-min Rain = 0
KLD1 240617Z 26008KT 08/M12 A2989 RMK A01 T00751115  RH  025%=      5-min Rain = 0
KLD1 240618Z 26009KT 08/M12 A2989 RMK A01 T00751115  RH  025%=      5-min Rain = 0
KLD1 240619Z 25009KT 08/M12 A2989 RMK A01 T00761115  RH  025%=      5-min Rain = 0
KLD1 240620Z 25010KT 08/M11 A2989 RMK A01 T00761114  RH  025%=      5-min Rain = 0
KLD1 240621Z 26009KT 08/M11 A2989 RMK A01 T00751114  RH  025%=      5-min Rain = 0
KLD1 240622Z 26010KT 07/M11 A2989 RMK A01 T00741114  RH  025%=      5-min Rain = 0
KLD1 240623Z 26011KT 08/M11 A2989 RMK A01 T00751114  RH  025%=      5-min Rain = 0
KLD1 240624Z 26011KT 08/M11 A2989 RMK A01 T00761114  RH  025%=      5-min Rain = 0
KLD1 240625Z 25010KT 08/M11 A2989 RMK A01 T00761114  RH  025%=      5-min Rain = 0
KLD1 240626Z 25009KT 08/M11 A2989 RMK A01 T00761114  RH  025%=      5-min Rain = 0
KLD1 240627Z 25009KT 08/M11 A2989 RMK A01 T00751114  RH  025%=      5-min Rain = 0
KLD1 240628Z 25009KT 07/M11 A2989 RMK A01 T00741114  RH  025%=      5-min Rain = 0
KLD1 240629Z 25010KT 07/M11 A2989 RMK A01 T00731113  RH  025%=      5-min Rain = 0
KLD1 240630Z 25010KT 07/M11 A2989 RMK A01 T00741113  RH  025%=      5-min Rain = 0
KLD1 240631Z 25011KT 07/M11 A2989 RMK A01 T00741113  RH  025%=      5-min Rain = 0
KLD1 240632Z 25011KT 07/M11 A2989 RMK A01 T00741113  RH  025%=      5-min Rain = 0
KLD1 240633Z 25012KT 08/M11 A2989 RMK A01 T00751113  RH  025%=      5-min Rain = 0
KLD1 240634Z 25012KT 08/M11 A2989 RMK A01 T00751113  RH  025%=      5-min Rain = 0
KLD1 240635Z 24012KT 08/M11 A2989 RMK A01 T00751113  RH  025%=      5-min Rain = 0
KLD1 240636Z 24011KT 08/M11 A2989 RMK A01 T00761113  RH  025%=      5-min Rain = 0
KLD1 240637Z 25011KT 08/M11 A2989 RMK A01 T00751113  RH  025%=      5-min Rain = 0
KLD1 240638Z 25010KT 07/M11 A2989 RMK A01 T00731112  RH  025%=      5-min Rain = 0
KLD1 240639Z 25010KT 07/M11 A2989 RMK A01 T00721112  RH  026%=      5-min Rain = 0
KLD1 240640Z 24010KT 07/M11 A2989 RMK A01 T00701112  RH  026%=      5-min Rain = 0
KLD1 240641Z 24010KT 07/M11 A2989 RMK A01 T00691111  RH  026%=      5-min Rain = 0
KLD1 240642Z 24010KT 07/M11 A2989 RMK A01 T00691111  RH  026%=      5-min Rain = 0
KLD1 240643Z 24011KT 07/M11 A2989 RMK A01 T00691112  RH  026%=      5-min Rain = 0
KLD1 240644Z 24011KT 07/M11 A2989 RMK A01 T00691112  RH  026%=      5-min Rain = 0
KLD1 240645Z 24010KT 07/M11 A2989 RMK A01 T00691112  RH  026%=      5-min Rain = 0
KLD1 240646Z 25010KT 07/M11 A2989 RMK A01 T00701112  RH  026%=      5-min Rain = 0
KLD1 240647Z 25010KT 07/M11 A2989 RMK A01 T00701112  RH  026%=      5-min Rain = 0
KLD1 240648Z 25009KT 07/M11 A2989 RMK A01 T00701111  RH  026%=      5-min Rain = 0
KLD1 240649Z 26009KT 07/M11 A2989 RMK A01 T00691111  RH  026%=      5-min Rain = 0
KLD1 240650Z 26009KT 07/M11 A2989 RMK A01 T00691111  RH  026%=      5-min Rain = 0
KLD1 240651Z 26009KT 07/M11 A299 RMK A01 T00681110  RH  027%=      5-min Rain = 0
KLD1 240652Z 25009KT 07/M11 A299 RMK A01 T00671110  RH  027%=      5-min Rain = 0
KLD1 240653Z 25010KT 07/M11 A299 RMK A01 T00671110  RH  027%=      5-min Rain = 0
KLD1 240654Z 25010KT 07/M11 A299 RMK A01 T00661111  RH  027%=      5-min Rain = 0
KLD1 240655Z 25010KT 07/M11 A299 RMK A01 T00661111  RH  027%=      5-min Rain = 0
KLD1 240656Z 25010KT 07/M11 A299 RMK A01 T00651110  RH  027%=      5-min Rain = 0
KLD1 240657Z 25010KT 07/M11 A299 RMK A01 T00651110  RH  027%=      5-min Rain = 0
KLD1 240658Z 25010KT 06/M11 A299 RMK A01 T00641110  RH  027%=      5-min Rain = 0
KLD1 240659Z 25010KT 06/M11 A299 RMK A01 T00631110  RH  028%=      5-min Rain = 0
KLD1 240700Z 25010KT 06/M11 A299 RMK A01 T00631110  RH  028%=      5-min Rain = 0
KLD1 240701Z 25010KT 06/M11 A299 RMK A01 T00631109  RH  028%=      5-min Rain = 0
KLD1 240702Z 25010KT 06/M11 A299 RMK A01 T00631109  RH  028%=      5-min Rain = 0
KLD1 240703Z 25010KT 06/M11 A299 RMK A01 T00631108  RH  028%=      5-min Rain = 0
KLD1 240704Z 25010KT 06/M11 A299 RMK A01 T00631108  RH  028%=      5-min Rain = 0
KLD1 240705Z 25010KT 06/M11 A299 RMK A01 T00621108  RH  028%=      5-min Rain = 0
KLD1 240706Z 25010KT 06/M11 A299 RMK A01 T00631108  RH  028%=      5-min Rain = 0
KLD1 240707Z 25010KT 06/M11 A299 RMK A01 T00621108  RH  028%=      5-min Rain = 0
KLD1 240708Z 24010KT 06/M11 A299 RMK A01 T00611108  RH  029%=      5-min Rain = 0
KLD1 240709Z 25010KT 06/M11 A299 RMK A01 T00591108  RH  029%=      5-min Rain = 0
KLD1 240710Z 25009KT 06/M11 A299 RMK A01 T00581108  RH  029%=      5-min Rain = 0
KLD1 240711Z 25009KT 06/M11 A299 RMK A01 T00561107  RH  030%=      5-min Rain = 0
KLD1 240712Z 25010KT 06/M11 A299 RMK A01 T00551107  RH  030%=      5-min Rain = 0
KLD1 240713Z 25010KT 06/M11 A299 RMK A01 T00551107  RH  030%=      5-min Rain = 0
KLD1 240714Z 26010KT 06/M11 A299 RMK A01 T00551107  RH  030%=      5-min Rain = 0
KLD1 240715Z 26010KT 06/M11 A299 RMK A01 T00551107  RH  030%=      5-min Rain = 0
KLD1 240716Z 26011KT 06/M11 A299 RMK A01 T00561107  RH  030%=      5-min Rain = 0
KLD1 240717Z 25011KT 06/M11 A299 RMK A01 T00571107  RH  029%=      5-min Rain = 0
KLD1 240718Z 25011KT 06/M11 A299 RMK A01 T00591107  RH  029%=      5-min Rain = 0
KLD1 240719Z 25011KT 06/M11 A299 RMK A01 T00591107  RH  029%=      5-min Rain = 0
KLD1 240720Z 25011KT 06/M11 A299 RMK A01 T00591107  RH  029%=      5-min Rain = 0
KLD1 240721Z 25011KT 06/M11 A299 RMK A01 T00591107  RH  029%=      5-min Rain = 0
KLD1 240722Z 25011KT 06/M11 A299 RMK A01 T00591107  RH  029%=      5-min Rain = 0
KLD1 240723Z 25012KT 06/M11 A299 RMK A01 T00581107  RH  029%=      5-min Rain = 0
KLD1 240724Z 25012KT 06/M11 A299 RMK A01 T00581107  RH  029%=      5-min Rain = 0
KLD1 240725Z 26011KT 06/M11 A299 RMK A01 T00581107  RH  029%=      5-min Rain = 0
KLD1 240726Z 26010KT 06/M11 A299 RMK A01 T00591107  RH  029%=      5-min Rain = 0
KLD1 240727Z 27009KT 06/M11 A299 RMK A01 T00591107  RH  029%=      5-min Rain = 0
KLD1 240728Z 27009KT 06/M11 A299 RMK A01 T00581107  RH  029%=      5-min Rain = 0
KLD1 240729Z 27008KT 06/M11 A299 RMK A01 T00581108  RH  029%=      5-min Rain = 0
KLD1 240730Z 28008KT 06/M11 A299 RMK A01 T00561107  RH  030%=      5-min Rain = 0
KLD1 240731Z 28008KT 06/M11 A2991 RMK A01 T00551107  RH  030%=      5-min Rain = 0
KLD1 240732Z 28009KT 05/M11 A2991 RMK A01 T00541106  RH  030%=      5-min Rain = 0
KLD1 240733Z 28008KT 05/M11 A2991 RMK A01 T00541106  RH  030%=      5-min Rain = 0
KLD1 240734Z 28008KT 05/M11 A2991 RMK A01 T00541106  RH  030%=      5-min Rain = 0
KLD1 240735Z 27008KT 05/M11 A2991 RMK A01 T00541106  RH  031%=      5-min Rain = 0
KLD1 240736Z 26009KT 05/M11 A2991 RMK A01 T00531106  RH  031%=      5-min Rain = 0
KLD1 240737Z 26010KT 05/M11 A2991 RMK A01 T00531106  RH  031%=      5-min Rain = 0
KLD1 240738Z 26010KT 05/M11 A299 RMK A01 T00541106  RH  031%=      5-min Rain = 0
KLD1 240739Z 26010KT 05/M11 A2991 RMK A01 T00541106  RH  031%=      5-min Rain = 0
KLD1 240740Z 26009KT 05/M11 A2991 RMK A01 T00531106  RH  031%=      5-min Rain = 0
KLD1 240741Z 26008KT 05/M11 A2991 RMK A01 T00511106  RH  031%=      5-min Rain = 0
KLD1 240742Z 27009KT 05/M11 A2991 RMK A01 T00501105  RH  032%=      5-min Rain = 0
KLD1 240743Z 27008KT 05/M11 A2991 RMK A01 T00491105  RH  032%=      5-min Rain = 0
KLD1 240744Z 27009KT 05/M11 A2991 RMK A01 T00491105  RH  032%=      5-min Rain = 0
KLD1 240745Z 27009KT 05/M10 A2991 RMK A01 T00481104  RH  032%=      5-min Rain = 0
KLD1 240746Z 28009KT 05/M10 A2991 RMK A01 T00481104  RH  032%=      5-min Rain = 0
KLD1 240747Z 28009KT 05/M10 A2991 RMK A01 T00491104  RH  032%=      5-min Rain = 0
KLD1 240748Z 28009KT 05/M10 A2991 RMK A01 T00501104  RH  032%=      5-min Rain = 0
KLD1 240749Z 28010KT 05/M10 A2991 RMK A01 T00521104  RH  031%=      5-min Rain = 0
KLD1 240750Z 28010KT 05/M10 A2991 RMK A01 T00541104  RH  031%=      5-min Rain = 0
KLD1 240751Z 28010KT 06/M10 A2991 RMK A01 T00551104  RH  031%=      5-min Rain = 0
KLD1 240752Z 28011KT 06/M10 A2991 RMK A01 T00571104  RH  030%=      5-min Rain = 0
KLD1 240753Z 28011KT 06/M10 A2991 RMK A01 T00581104  RH  030%=      5-min Rain = 0
KLD1 240754Z 28011KT 06/M10 A2991 RMK A01 T00581104  RH  030%=      5-min Rain = 0
KLD1 240755Z 28010KT 06/M11 A2991 RMK A01 T00591105  RH  030%=      5-min Rain = 0
KLD1 240756Z 28010KT 06/M10 A2991 RMK A01 T00601104  RH  030%=      5-min Rain = 0
KLD1 240757Z 29009KT 06/M10 A2991 RMK A01 T00601104  RH  030%=      5-min Rain = 0
KLD1 240758Z 29009KT 06/M10 A2991 RMK A01 T00591104  RH  030%=      5-min Rain = 0
KLD1 240759Z 29010KT 06/M10 A2992 RMK A01 T00581103  RH  030%=      5-min Rain = 0
KLD1 240800Z 29009KT 06/M10 A2992 RMK A01 T00571103  RH  031%=      5-min Rain = 0
KLD1 240801Z 30009KT 06/M10 A2992 RMK A01 T00551102  RH  031%=      5-min Rain = 0
KLD1 240802Z 30010KT 05/M10 A2992 RMK A01 T00521102  RH  032%=      5-min Rain = 0
KLD1 240803Z 30009KT 05/M10 A2992 RMK A01 T00511101  RH  032%=      5-min Rain = 0
KLD1 240804Z 30009KT 05/M10 A2992 RMK A01 T00501100  RH  033%=      5-min Rain = 0
KLD1 240805Z 30010KT 05/M10 A2992 RMK A01 T00481100  RH  033%=      5-min Rain = 0
KLD1 240806Z 30010KT 05/M10 A2992 RMK A01 T00481100  RH  033%=      5-min Rain = 0
KLD1 240807Z 30009KT 05/M10 A2992 RMK A01 T00471100  RH  034%=      5-min Rain = 0
KLD1 240808Z 30009KT 05/M10 A2992 RMK A01 T00471100  RH  033%=      5-min Rain = 0
KLD1 240809Z 30009KT 05/M10 A2992 RMK A01 T00471100  RH  033%=      5-min Rain = 0
KLD1 240810Z 30010KT 05/M10 A2993 RMK A01 T00461100  RH  034%=      5-min Rain = 0
KLD1 240811Z 30009KT 05/M10 A2993 RMK A01 T00451099  RH  034%=      5-min Rain = 0
KLD1 240812Z 30010KT 05/M10 A2993 RMK A01 T00451098  RH  035%=      5-min Rain = 0
KLD1 240813Z 30010KT 05/M10 A2993 RMK A01 T00451097  RH  035%=      5-min Rain = 0
KLD1 240814Z 29010KT 05/M10 A2993 RMK A01 T00471097  RH  034%=      5-min Rain = 0
KLD1 240815Z 29010KT 05/M10 A2993 RMK A01 T00481097  RH  034%=      5-min Rain = 0
KLD1 240816Z 29010KT 05/M10 A2993 RMK A01 T00501097  RH  034%=      5-min Rain = 0
KLD1 240817Z 29010KT 05/M10 A2993 RMK A01 T00501098  RH  033%=      5-min Rain = 0
KLD1 240818Z 29010KT 05/M10 A2993 RMK A01 T00511098  RH  033%=      5-min Rain = 0
KLD1 240819Z 29010KT 05/M10 A2993 RMK A01 T00521098  RH  033%=      5-min Rain = 0
KLD1 240820Z 29010KT 05/M10 A2993 RMK A01 T00531098  RH  033%=      5-min Rain = 0
KLD1 240821Z 30010KT 05/M10 A2993 RMK A01 T00531098  RH  033%=      5-min Rain = 0
KLD1 240822Z 30010KT 05/M10 A2993 RMK A01 T00541098  RH  032%=      5-min Rain = 0
KLD1 240823Z 30010KT 06/M10 A2993 RMK A01 T00551098  RH  032%=      5-min Rain = 0
KLD1 240824Z 30011KT 06/M10 A2993 RMK A01 T00571098  RH  032%=      5-min Rain = 0
KLD1 240825Z 30011KT 06/M10 A2993 RMK A01 T00591099  RH  031%=      5-min Rain = 0
KLD1 240826Z 30011KT 06/M10 A2993 RMK A01 T00611099  RH  031%=      5-min Rain = 0
KLD1 240827Z 30011KT 06/M10 A2994 RMK A01 T00631100  RH  030%=      5-min Rain = 0
KLD1 240828Z 33015KT 06/M10 A2995 RMK A01 T00631100  RH  030%=      5-min Rain = 0
KLD1 240829Z 32014KT 06/M10 A2995 RMK A01 T00631099  RH  030%=      5-min Rain = 0
KLD1 240830Z 30013KT 06/M10 A2994 RMK A01 T00631099  RH  030%=      5-min Rain = 0
KLD1 240831Z 30014G19KT 07/M10 A2994 RMK A01 T00651100  RH  030%=      5-min Rain = 0
KLD1 240832Z 30014KT 07/M10 A2994 RMK A01 T00681100  RH  029%=      5-min Rain = 0
KLD1 240833Z 30013KT 07/M10 A2994 RMK A01 T00711101  RH  028%=      5-min Rain = 0
KLD1 240834Z 30013KT 07/M10 A2994 RMK A01 T00741101  RH  028%=      5-min Rain = 0
KLD1 240835Z 29013KT 07/M10 A2994 RMK A01 T00741102  RH  028%=      5-min Rain = 0
KLD1 240836Z 30013KT 07/M10 A2994 RMK A01 T00741102  RH  027%=      5-min Rain = 0
KLD1 240837Z 30013KT 07/M10 A2994 RMK A01 T00741102  RH  027%=      5-min Rain = 0
KLD1 240838Z 30013KT 07/M10 A2994 RMK A01 T00741101  RH  028%=      5-min Rain = 0
KLD1 240839Z 30012KT 07/M10 A2994 RMK A01 T00731101  RH  028%=      5-min Rain = 0
KLD1 240840Z 30013KT 07/M10 A2994 RMK A01 T00721101  RH  028%=      5-min Rain = 0
KLD1 240841Z 29013KT 07/M10 A2994 RMK A01 T00701101  RH  028%=      5-min Rain = 0
KLD1 240842Z 30012KT 07/M10 A2994 RMK A01 T00691101  RH  029%=      5-min Rain = 0
KLD1 240843Z 30012KT 07/M10 A2994 RMK A01 T00661100  RH  029%=      5-min Rain = 0
KLD1 240844Z 30012KT 06/M10 A2994 RMK A01 T00641100  RH  030%=      5-min Rain = 0
KLD1 240845Z 30012KT 06/M10 A2994 RMK A01 T00621099  RH  030%=      5-min Rain = 0
KLD1 240846Z 30011KT 06/M10 A2994 RMK A01 T00601099  RH  031%=      5-min Rain = 0
KLD1 240847Z 30011KT 06/M10 A2994 RMK A01 T00591098  RH  031%=      5-min Rain = 0
KLD1 240848Z 30011KT 06/M10 A2994 RMK A01 T00581098  RH  032%=      5-min Rain = 0
KLD1 240849Z 30011KT 06/M10 A2994 RMK A01 T00571097  RH  032%=      5-min Rain = 0
KLD1 240850Z 31012KT 06/M10 A2995 RMK A01 T00561097  RH  032%=      5-min Rain = 0
KLD1 240851Z 32014KT 06/M10 A2996 RMK A01 T00551097  RH  033%=      5-min Rain = 0
KLD1 240852Z 32012KT 05/M10 A2996 RMK A01 T00541096  RH  033%=      5-min Rain = 0
KLD1 240853Z 31013G18KT 05/M10 A2995 RMK A01 T00541095  RH  033%=      5-min Rain = 0
KLD1 240854Z 31014KT 05/M10 A2995 RMK A01 T00541096  RH  033%=      5-min Rain = 0
KLD1 240855Z 32016KT 06/M10 A2996 RMK A01 T00551096  RH  033%=      5-min Rain = 0
KLD1 240856Z 32016KT 06/M10 A2996 RMK A01 T00561095  RH  033%=      5-min Rain = 0
KLD1 240857Z 32016KT 06/M09 A2996 RMK A01 T00571094  RH  033%=      5-min Rain = 0
KLD1 240858Z 32016G21KT 06/M09 A2996 RMK A01 T00601094  RH  032%=      5-min Rain = 0
KLD1 240859Z 32014KT 06/M09 A2997 RMK A01 T00631093  RH  032%=      5-min Rain = 0
KLD1 240900Z 32015G20KT 06/M09 A2997 RMK A01 T00641093  RH  031%=      5-min Rain = 0
KLD1 240901Z 33017KT 07/M09 A2997 RMK A01 T00681093  RH  031%=      5-min Rain = 0
KLD1 240902Z 32014KT 07/M09 A2997 RMK A01 T00711092  RH  030%=      5-min Rain = 0
KLD1 240903Z 33015KT 07/M09 A2997 RMK A01 T00711093  RH  030%=      5-min Rain = 0
KLD1 240904Z 33015KT 07/M09 A2997 RMK A01 T00711093  RH  030%=      5-min Rain = 0
KLD1 240905Z 33015KT 07/M09 A2997 RMK A01 T00721092  RH  030%=      5-min Rain = 0
KLD1 240906Z 33014G19KT 07/M09 A2997 RMK A01 T00731090  RH  030%=      5-min Rain = 0
KLD1 240907Z 33014G19KT 07/M09 A2997 RMK A01 T00741089  RH  030%=      5-min Rain = 0
KLD1 240908Z 33016G21KT 08/M09 A2997 RMK A01 T00751087  RH  031%=      5-min Rain = 0
KLD1 240909Z 33015KT 08/M09 A2997 RMK A01 T00771085  RH  031%=      5-min Rain = 0
KLD1 240910Z 34019KT 08/M08 A2997 RMK A01 T00781084  RH  031%=      5-min Rain = 0
KLD1 240911Z 34018KT 08/M08 A2998 RMK A01 T00801080  RH  031%=      5-min Rain = 0
KLD1 240912Z 34018KT 08/M08 A2998 RMK A01 T00801080  RH  031%=      5-min Rain = 0
KLD1 240913Z 34018KT 08/M08 A2998 RMK A01 T00801079  RH  031%=      5-min Rain = 0
KLD1 240914Z 34017G22KT 08/M08 A2998 RMK A01 T00801078  RH  032%=      5-min Rain = 0
KLD1 240915Z 34017G22KT 08/M08 A2998 RMK A01 T00791077  RH  032%=      5-min Rain = 0
KLD1 240916Z 34016KT 08/M08 A2998 RMK A01 T00801076  RH  032%=      5-min Rain = 0
KLD1 240917Z 34014KT 08/M08 A2998 RMK A01 T00801076  RH  032%=      5-min Rain = 0
KLD1 240918Z 34013KT 08/M08 A2998 RMK A01 T00781076  RH  033%=      5-min Rain = 0
KLD1 240919Z 34016KT 08/M08 A2998 RMK A01 T00771075  RH  033%=      5-min Rain = 0
KLD1 240920Z 34017KT 08/M07 A2998 RMK A01 T00781072  RH  034%=      5-min Rain = 0
KLD1 240921Z 34015KT 08/M07 A2998 RMK A01 T00791072  RH  034%=      5-min Rain = 0
KLD1 240922Z 35015KT 08/M07 A2998 RMK A01 T00781072  RH  034%=      5-min Rain = 0
KLD1 240923Z 35013KT 08/M07 A2998 RMK A01 T00771071  RH  034%=      5-min Rain = 0
KLD1 240924Z 35013KT 08/M07 A2998 RMK A01 T00761071  RH  034%=      5-min Rain = 0
KLD1 240925Z 35015KT 07/M07 A2998 RMK A01 T00741069  RH  035%=      5-min Rain = 0
KLD1 240926Z 35014KT 07/M07 A2998 RMK A01 T00741067  RH  036%=      5-min Rain = 0
KLD1 240927Z 35016KT 07/M07 A2998 RMK A01 T00741066  RH  036%=      5-min Rain = 0
KLD1 240928Z 35016KT 08/M06 A2998 RMK A01 T00761064  RH  036%=      5-min Rain = 0
KLD1 240929Z 35017KT 08/M06 A2998 RMK A01 T00771064  RH  036%=      5-min Rain = 0
KLD1 240930Z 36016KT 08/M06 A2999 RMK A01 T00771064  RH  036%=      5-min Rain = 0
KLD1 240931Z 36015KT 08/M06 A2999 RMK A01 T00761064  RH  036%=      5-min Rain = 0
KLD1 240932Z 36015KT 08/M06 A2999 RMK A01 T00751064  RH  037%=      5-min Rain = 0
KLD1 240933Z 36014KT 07/M06 A2999 RMK A01 T00741063  RH  037%=      5-min Rain = 0
KLD1 240934Z 36015KT 07/M06 A2999 RMK A01 T00731062  RH  037%=      5-min Rain = 0
KLD1 240935Z 36014KT 07/M06 A2999 RMK A01 T00731062  RH  038%=      5-min Rain = 0
KLD1 240936Z 00016KT 07/M06 A2999 RMK A01 T00721061  RH  038%=      5-min Rain = 0
KLD1 240937Z 00016KT 07/M06 A2999 RMK A01 T00721061  RH  038%=      5-min Rain = 0
KLD1 240938Z 36016KT 07/M06 A2999 RMK A01 T00711060  RH  039%=      5-min Rain = 0
KLD1 240939Z 36015KT 07/M06 A2999 RMK A01 T00711060  RH  039%=      5-min Rain = 0
KLD1 240940Z 36014KT 07/M06 A2999 RMK A01 T00701061  RH  039%=      5-min Rain = 0
KLD1 240941Z 36014KT 07/M06 A2999 RMK A01 T00691061  RH  039%=      5-min Rain = 0
KLD1 240942Z 36014KT 07/M06 A2999 RMK A01 T00681060  RH  039%=      5-min Rain = 0
KLD1 240943Z 00014KT 07/M06 A2999 RMK A01 T00671060  RH  040%=      5-min Rain = 0
KLD1 240944Z 00014KT 07/M06 A2999 RMK A01 T00671059  RH  040%=      5-min Rain = 0
KLD1 240945Z 00014KT 07/M06 A2999 RMK A01 T00671058  RH  040%=      5-min Rain = 0
KLD1 240946Z 36014KT 07/M06 A2999 RMK A01 T00671058  RH  041%=      5-min Rain = 0
KLD1 240947Z 36014KT 07/M06 A2999 RMK A01 T00661058  RH  041%=      5-min Rain = 0
KLD1 240948Z 36014G19KT 07/M06 A2999 RMK A01 T00651058  RH  041%=      5-min Rain = 0
KLD1 240949Z 36014G19KT 07/M06 A30 RMK A01 T00651057  RH  041%=      5-min Rain = 0
KLD1 240950Z 36014G19KT 07/M06 A30 RMK A01 T00651057  RH  041%=      5-min Rain = 0
KLD1 240951Z 36014KT 07/M06 A30 RMK A01 T00651057  RH  041%=      5-min Rain = 0
KLD1 240952Z 36013KT 07/M06 A30 RMK A01 T00651056  RH  041%=      5-min Rain = 0
KLD1 240953Z 36014KT 07/M06 A30 RMK A01 T00651056  RH  042%=      5-min Rain = 0
KLD1 240954Z 36013KT 06/M06 A30 RMK A01 T00641056  RH  042%=      5-min Rain = 0
KLD1 240955Z 36014KT 06/M06 A30 RMK A01 T00641055  RH  042%=      5-min Rain = 0
KLD1 240956Z 36015G20KT 06/M05 A30 RMK A01 T00641054  RH  042%=      5-min Rain = 0
KLD1 240957Z 01016KT 07/M05 A30 RMK A01 T00651054  RH  042%=      5-min Rain = 0
KLD1 240958Z 00016KT 07/M05 A30 RMK A01 T00651053  RH  043%=      5-min Rain = 0
KLD1 240959Z 01014KT 07/M05 A30 RMK A01 T00651052  RH  043%=      5-min Rain = 0
KLD1 241000Z 01016KT 07/M05 A30 RMK A01 T00661052  RH  043%=      5-min Rain = 0
KLD1 241001Z 01014KT 07/M05 A30 RMK A01 T00661051  RH  043%=      5-min Rain = 0
KLD1 241002Z 01015G21KT 07/M05 A30 RMK A01 T00661051  RH  043%=      5-min Rain = 0
KLD1 241003Z 01015G20KT 07/M05 A30 RMK A01 T00661050  RH  043%=      5-min Rain = 0
KLD1 241004Z 01016KT 07/M05 A30 RMK A01 T00661050  RH  043%=      5-min Rain = 0
KLD1 241005Z 01015KT 07/M05 A30 RMK A01 T00661049  RH  044%=      5-min Rain = 0
KLD1 241006Z 01016G21KT 07/M05 A30 RMK A01 T00661049  RH  044%=      5-min Rain = 0
KLD1 241007Z 01015KT 07/M05 A30 RMK A01 T00661048  RH  044%=      5-min Rain = 0
KLD1 241008Z 01014G19KT 07/M05 A30 RMK A01 T00651048  RH  044%=      5-min Rain = 0
KLD1 241009Z 01015G20KT 06/M05 A30 RMK A01 T00641048  RH  044%=      5-min Rain = 0
KLD1 241010Z 01016KT 06/M05 A30 RMK A01 T00641048  RH  045%=      5-min Rain = 0
KLD1 241011Z 01015KT 06/M05 A30 RMK A01 T00641047  RH  045%=      5-min Rain = 0
KLD1 241012Z 01015KT 06/M05 A30 RMK A01 T00631047  RH  045%=      5-min Rain = 0
KLD1 241013Z 01014KT 06/M05 A30 RMK A01 T00631047  RH  045%=      5-min Rain = 0
KLD1 241014Z 01015KT 06/M05 A30 RMK A01 T00621047  RH  045%=      5-min Rain = 0
KLD1 241015Z 01015KT 06/M05 A30 RMK A01 T00621047  RH  046%=      5-min Rain = 0
KLD1 241016Z 01014KT 06/M05 A3001 RMK A01 T00621046  RH  046%=      5-min Rain = 0
KLD1 241017Z 01013KT 06/M05 A3001 RMK A01 T00621047  RH  046%=      5-min Rain = 0
KLD1 241018Z 01013KT 06/M05 A3001 RMK A01 T00611047  RH  046%=      5-min Rain = 0
KLD1 241019Z 00014KT 06/M05 A3001 RMK A01 T00601047  RH  046%=      5-min Rain = 0
KLD1 241020Z 00015KT 06/M05 A3001 RMK A01 T00601046  RH  047%=      5-min Rain = 0
KLD1 241021Z 00014KT 06/M05 A3001 RMK A01 T00601046  RH  047%=      5-min Rain = 0
KLD1 241022Z 00015KT 06/M05 A3001 RMK A01 T00591046  RH  047%=      5-min Rain = 0
KLD1 241023Z 00016KT 06/M05 A3001 RMK A01 T00591046  RH  047%=      5-min Rain = 0
KLD1 241024Z 00016KT 06/M05 A3001 RMK A01 T00591046  RH  047%=      5-min Rain = 0
KLD1 241025Z 01016KT 06/M05 A3001 RMK A01 T00591046  RH  047%=      5-min Rain = 0
KLD1 241026Z 01016G21KT 06/M05 A3001 RMK A01 T00591046  RH  047%=      5-min Rain = 0
KLD1 241027Z 01016KT 06/M05 A3001 RMK A01 T00591045  RH  047%=      5-min Rain = 0
KLD1 241028Z 01017KT 06/M05 A3001 RMK A01 T00591046  RH  047%=      5-min Rain = 0
KLD1 241029Z 01016KT 06/M05 A3001 RMK A01 T00591046  RH  047%=      5-min Rain = 0
KLD1 241030Z 01018KT 06/M05 A3001 RMK A01 T00591046  RH  047%=      5-min Rain = 0
KLD1 241031Z 01018KT 06/M05 A3002 RMK A01 T00591046  RH  047%=      5-min Rain = 0
KLD1 241032Z 01018KT 06/M05 A3002 RMK A01 T00591045  RH  047%=      5-min Rain = 0
KLD1 241033Z 01019KT 06/M05 A3002 RMK A01 T00591045  RH  047%=      5-min Rain = 0
KLD1 241034Z 01017KT 06/M05 A3002 RMK A01 T00601045  RH  047%=      5-min Rain = 0
KLD1 241035Z 01018G23KT 06/M05 A3002 RMK A01 T00591046  RH  047%=      5-min Rain = 0
KLD1 241036Z 01016G21KT 06/M05 A3002 RMK A01 T00591046  RH  047%=      5-min Rain = 0
KLD1 241037Z 01018KT 06/M05 A3002 RMK A01 T00581046  RH  047%=      5-min Rain = 0
KLD1 241038Z 01018KT 06/M05 A3002 RMK A01 T00581046  RH  047%=      5-min Rain = 0
KLD1 241039Z 01019KT 06/M05 A3002 RMK A01 T00571046  RH  047%=      5-min Rain = 0
KLD1 241040Z 01017G22KT 06/M05 A3002 RMK A01 T00581046  RH  047%=      5-min Rain = 0
KLD1 241041Z 01018KT 06/M05 A3002 RMK A01 T00581046  RH  047%=      5-min Rain = 0
KLD1 241042Z 01018G25KT 06/M05 A3003 RMK A01 T00581047  RH  047%=      5-min Rain = 0
KLD1 241043Z 01017G22KT 06/M05 A3003 RMK A01 T00581047  RH  047%=      5-min Rain = 0
KLD1 241044Z 01019G25KT 06/M05 A3003 RMK A01 T00571047  RH  047%=      5-min Rain = 0
KLD1 241045Z 01018KT 06/M05 A3003 RMK A01 T00571047  RH  047%=      5-min Rain = 0
KLD1 241046Z 01016G22KT 06/M05 A3003 RMK A01 T00571048  RH  047%=      5-min Rain = 0
KLD1 241047Z 01016KT 06/M05 A3003 RMK A01 T00571048  RH  047%=      5-min Rain = 0
KLD1 241048Z 01015KT 06/M05 A3003 RMK A01 T00561048  RH  047%=      5-min Rain = 0
KLD1 241049Z 01016KT 06/M05 A3003 RMK A01 T00561048  RH  047%=      5-min Rain = 0
KLD1 241050Z 01016KT 06/M05 A3003 RMK A01 T00561048  RH  047%=      5-min Rain = 0
KLD1 241051Z 01016G21KT 06/M05 A3003 RMK A01 T00561048  RH  047%=      5-min Rain = 0
KLD1 241052Z 01016KT 06/M05 A3003 RMK A01 T00551048  RH  047%=      5-min Rain = 0
KLD1 241053Z 01017KT 06/M05 A3003 RMK A01 T00551049  RH  047%=      5-min Rain = 0
KLD1 241054Z 01018KT 06/M05 A3003 RMK A01 T00551049  RH  047%=      5-min Rain = 0
KLD1 241055Z 00017KT 06/M05 A3003 RMK A01 T00561049  RH  047%=      5-min Rain = 0
KLD1 241056Z 01017KT 06/M05 A3003 RMK A01 T00551049  RH  047%=      5-min Rain = 0
KLD1 241057Z 01016KT 06/M05 A3003 RMK A01 T00551049  RH  047%=      5-min Rain = 0
KLD1 241058Z 01018G23KT 06/M05 A3003 RMK A01 T00551049  RH  047%=      5-min Rain = 0
KLD1 241059Z 01016KT 06/M05 A3004 RMK A01 T00551049  RH  047%=      5-min Rain = 0
KLD1 241100Z 01015KT 06/M05 A3004 RMK A01 T00551049  RH  047%=      5-min Rain = 0
KLD1 241101Z 00015KT 06/M05 A3004 RMK A01 T00551050  RH  047%=      5-min Rain = 0
KLD1 241102Z 00014KT 05/M05 A3004 RMK A01 T00541050  RH  047%=      5-min Rain = 0
KLD1 241103Z 00015KT 05/M05 A3004 RMK A01 T00521050  RH  048%=      5-min Rain = 0
KLD1 241104Z 00015KT 05/M05 A3004 RMK A01 T00521049  RH  048%=      5-min Rain = 0
KLD1 241105Z 00014KT 05/M05 A3004 RMK A01 T00521049  RH  048%=      5-min Rain = 0
KLD1 241106Z 00014KT 05/M05 A3004 RMK A01 T00521049  RH  048%=      5-min Rain = 0
KLD1 241107Z 36014KT 05/M05 A3004 RMK A01 T00521049  RH  048%=      5-min Rain = 0
KLD1 241108Z 00014KT 05/M05 A3004 RMK A01 T00511049  RH  048%=      5-min Rain = 0
KLD1 241109Z 36013KT 05/M05 A3004 RMK A01 T00511049  RH  049%=      5-min Rain = 0
KLD1 241110Z 00013KT 05/M05 A3004 RMK A01 T00501049  RH  049%=      5-min Rain = 0
KLD1 241111Z 00015KT 05/M05 A3004 RMK A01 T00501048  RH  049%=      5-min Rain = 0
KLD1 241112Z 36015KT 05/M05 A3004 RMK A01 T00501048  RH  049%=      5-min Rain = 0
KLD1 241113Z 36013KT 05/M05 A3004 RMK A01 T00501048  RH  049%=      5-min Rain = 0
KLD1 241114Z 00016KT 05/M05 A3004 RMK A01 T00491049  RH  049%=      5-min Rain = 0
KLD1 241115Z 36015KT 05/M05 A3004 RMK A01 T00491048  RH  049%=      5-min Rain = 0
KLD1 241116Z 00013KT 05/M05 A3004 RMK A01 T00491049  RH  049%=      5-min Rain = 0
KLD1 241117Z 36014KT 05/M05 A3005 RMK A01 T00481049  RH  049%=      5-min Rain = 0
KLD1 241118Z 36014KT 05/M05 A3005 RMK A01 T00481049  RH  050%=      5-min Rain = 0
KLD1 241119Z 36014KT 05/M05 A3005 RMK A01 T00471049  RH  050%=      5-min Rain = 0
KLD1 241120Z 36014KT 05/M05 A3005 RMK A01 T00471048  RH  050%=      5-min Rain = 0
KLD1 241121Z 36015KT 05/M05 A3005 RMK A01 T00481048  RH  050%=      5-min Rain = 0
KLD1 241122Z 00015KT 05/M05 A3005 RMK A01 T00481048  RH  050%=      5-min Rain = 0
KLD1 241123Z 00013KT 05/M05 A3005 RMK A01 T00481048  RH  050%=      5-min Rain = 0
KLD1 241124Z 00015KT 05/M05 A3005 RMK A01 T00481048  RH  050%=      5-min Rain = 0
KLD1 241125Z 00015KT 05/M05 A3005 RMK A01 T00471048  RH  050%=      5-min Rain = 0
KLD1 241126Z 00014KT 05/M05 A3005 RMK A01 T00471048  RH  050%=      5-min Rain = 0
KLD1 241127Z 00015KT 05/M05 A3005 RMK A01 T00471048  RH  050%=      5-min Rain = 0
KLD1 241128Z 00015KT 05/M05 A3005 RMK A01 T00471048  RH  050%=      5-min Rain = 0
KLD1 241129Z 00016KT 05/M05 A3005 RMK A01 T00471049  RH  050%=      5-min Rain = 0
KLD1 241130Z 00016KT 05/M05 A3005 RMK A01 T00471049  RH  050%=      5-min Rain = 0
KLD1 241131Z 00013KT 05/M05 A3005 RMK A01 T00471049  RH  050%=      5-min Rain = 0
KLD1 241132Z 00015KT 05/M05 A3005 RMK A01 T00471049  RH  050%=      5-min Rain = 0
KLD1 241133Z 00014KT 05/M05 A3005 RMK A01 T00461049  RH  050%=      5-min Rain = 0
KLD1 241134Z 00014KT 05/M05 A3005 RMK A01 T00461049  RH  050%=      5-min Rain = 0
KLD1 241135Z 36015KT 05/M05 A3005 RMK A01 T00461049  RH  050%=      5-min Rain = 0
KLD1 241136Z 00014KT 05/M05 A3005 RMK A01 T00461050  RH  050%=      5-min Rain = 0
KLD1 241137Z 00015KT 05/M05 A3005 RMK A01 T00461050  RH  050%=      5-min Rain = 0
KLD1 241138Z 00015KT 05/M05 A3006 RMK A01 T00461050  RH  050%=      5-min Rain = 0
KLD1 241139Z 00015KT 05/M05 A3006 RMK A01 T00461051  RH  049%=      5-min Rain = 0
KLD1 241140Z 00017G22KT 05/M05 A3006 RMK A01 T00461051  RH  049%=      5-min Rain = 0
KLD1 241141Z 00016KT 05/M05 A3006 RMK A01 T00461051  RH  049%=      5-min Rain = 0
KLD1 241142Z 00015KT 05/M05 A3006 RMK A01 T00461052  RH  049%=      5-min Rain = 0
KLD1 241143Z 00016G21KT 05/M05 A3006 RMK A01 T00461052  RH  049%=      5-min Rain = 0
KLD1 241144Z 00016KT 05/M05 A3006 RMK A01 T00461052  RH  049%=      5-min Rain = 0
KLD1 241145Z 00017G23KT 05/M05 A3006 RMK A01 T00461053  RH  049%=      5-min Rain = 0
KLD1 241146Z 00017KT 05/M05 A3006 RMK A01 T00461053  RH  049%=      5-min Rain = 0
KLD1 241147Z 00018KT 05/M05 A3006 RMK A01 T00461053  RH  049%=      5-min Rain = 0
KLD1 241148Z 00016KT 05/M05 A3006 RMK A01 T00461053  RH  049%=      5-min Rain = 0
KLD1 241149Z 00017KT 05/M05 A3006 RMK A01 T00461053  RH  048%=      5-min Rain = 0
KLD1 241150Z 00018KT 05/M05 A3006 RMK A01 T00461054  RH  049%=      5-min Rain = 0
KLD1 241151Z 00016KT 05/M05 A3006 RMK A01 T00461054  RH  049%=      5-min Rain = 0
KLD1 241152Z 00015KT 05/M05 A3006 RMK A01 T00451054  RH  049%=      5-min Rain = 0
KLD1 241153Z 00015KT 05/M05 A3006 RMK A01 T00451054  RH  049%=      5-min Rain = 0
KLD1 241154Z 00015KT 04/M05 A3006 RMK A01 T00441054  RH  049%=      5-min Rain = 0
KLD1 241155Z 00015KT 04/M05 A3006 RMK A01 T00441054  RH  049%=      5-min Rain = 0
KLD1 241156Z 00015KT 04/M05 A3006 RMK A01 T00441054  RH  049%=      5-min Rain = 0
KLD1 241157Z 36014KT 04/M05 A3006 RMK A01 T00431054  RH  049%=      5-min Rain = 0
KLD1 241158Z 36014KT 04/M06 A3006 RMK A01 T00421055  RH  049%=      5-min Rain = 0
KLD1 241159Z 36017KT 04/M06 A3006 RMK A01 T00421055  RH  049%=      5-min Rain = 0
KLD1 241200Z 36015G20KT 04/M05 A3006 RMK A01 T00421054  RH  049%=      5-min Rain = 0
KLD1 241201Z 36016G21KT 04/M05 A3006 RMK A01 T00421054  RH  049%=      5-min Rain = 0
KLD1 241202Z 36016G21KT 04/M05 A3006 RMK A01 T00421054  RH  049%=      5-min Rain = 0
KLD1 241203Z 00016G21KT 04/M05 A3006 RMK A01 T00431054  RH  049%=      5-min Rain = 0
KLD1 241204Z 36017KT 04/M05 A3006 RMK A01 T00431054  RH  049%=      5-min Rain = 0
KLD1 241205Z 00016KT 04/M05 A3007 RMK A01 T00431054  RH  049%=      5-min Rain = 0
KLD1 241206Z 36017KT 04/M05 A3007 RMK A01 T00421054  RH  049%=      5-min Rain = 0
KLD1 241207Z 36016KT 04/M05 A3007 RMK A01 T00421054  RH  049%=      5-min Rain = 0
KLD1 241208Z 00017KT 04/M05 A3007 RMK A01 T00421054  RH  049%=      5-min Rain = 0
KLD1 241209Z 36017KT 04/M05 A3007 RMK A01 T00421054  RH  050%=      5-min Rain = 0
KLD1 241210Z 36017KT 04/M05 A3007 RMK A01 T00431054  RH  049%=      5-min Rain = 0
KLD1 241211Z 36015KT 04/M05 A3007 RMK A01 T00431054  RH  049%=      5-min Rain = 0
KLD1 241212Z 36017KT 04/M05 A3007 RMK A01 T00421054  RH  050%=      5-min Rain = 0
KLD1 241213Z 36015G20KT 04/M05 A3007 RMK A01 T00421053  RH  050%=      5-min Rain = 0
KLD1 241214Z 36017KT 04/M05 A3007 RMK A01 T00421054  RH  050%=      5-min Rain = 0
KLD1 241215Z 36017KT 04/M05 A3007 RMK A01 T00421053  RH  050%=      5-min Rain = 0
KLD1 241216Z 36016KT 04/M05 A3007 RMK A01 T00421053  RH  050%=      5-min Rain = 0
KLD1 241217Z 36016G21KT 04/M05 A3007 RMK A01 T00421053  RH  050%=      5-min Rain = 0
KLD1 241218Z 36015G20KT 04/M05 A3007 RMK A01 T00421053  RH  050%=      5-min Rain = 0
KLD1 241219Z 36016G21KT 04/M05 A3007 RMK A01 T00421054  RH  050%=      5-min Rain = 0
KLD1 241220Z 00017G23KT 04/M05 A3007 RMK A01 T00411054  RH  050%=      5-min Rain = 0
KLD1 241221Z 00018G24KT 04/M05 A3007 RMK A01 T00421053  RH  050%=      5-min Rain = 0
KLD1 241222Z 00017G22KT 04/M05 A3007 RMK A01 T00431053  RH  050%=      5-min Rain = 0
KLD1 241223Z 00018KT 04/M05 A3007 RMK A01 T00421054  RH  050%=      5-min Rain = 0
KLD1 241224Z 00020KT 04/M05 A3007 RMK A01 T00431054  RH  050%=      5-min Rain = 0
KLD1 241225Z 00018KT 04/M05 A3007 RMK A01 T00431053  RH  049%=      5-min Rain = 0
KLD1 241226Z 00017KT 04/M05 A3008 RMK A01 T00431054  RH  049%=      5-min Rain = 0
KLD1 241227Z 00017KT 04/M05 A3008 RMK A01 T00431054  RH  050%=      5-min Rain = 0
KLD1 241228Z 00016KT 04/M05 A3008 RMK A01 T00431053  RH  050%=      5-min Rain = 0
KLD1 241229Z 36015KT 04/M05 A3008 RMK A01 T00411054  RH  050%=      5-min Rain = 0
KLD1 241230Z 36015KT 04/M05 A3008 RMK A01 T00411054  RH  050%=      5-min Rain = 0
KLD1 241231Z 36014KT 04/M05 A3007 RMK A01 T00401054  RH  051%=      5-min Rain = 0
KLD1 241232Z 36015KT 04/M05 A3007 RMK A01 T00391053  RH  051%=      5-min Rain = 0
KLD1 241233Z 36016KT 04/M05 A3007 RMK A01 T00391053  RH  051%=      5-min Rain = 0
KLD1 241234Z 00015KT 04/M05 A3007 RMK A01 T00391053  RH  051%=      5-min Rain = 0
KLD1 241235Z 00015G20KT 04/M05 A3007 RMK A01 T00391053  RH  051%=      5-min Rain = 0
KLD1 241236Z 00015KT 04/M05 A3008 RMK A01 T00391053  RH  051%=      5-min Rain = 0
KLD1 241237Z 00016KT 04/M05 A3008 RMK A01 T00391053  RH  051%=      5-min Rain = 0
KLD1 241238Z 36014KT 04/M05 A3008 RMK A01 T00391053  RH  051%=      5-min Rain = 0
KLD1 241239Z 36015KT 04/M05 A3008 RMK A01 T00381053  RH  051%=      5-min Rain = 0
KLD1 241240Z 36016KT 04/M05 A3008 RMK A01 T00381053  RH  051%=      5-min Rain = 0
KLD1 241241Z 36015KT 04/M05 A3008 RMK A01 T00381053  RH  051%=      5-min Rain = 0
KLD1 241242Z 36014KT 04/M05 A3008 RMK A01 T00381053  RH  052%=      5-min Rain = 0
KLD1 241243Z 36016KT 04/M05 A3008 RMK A01 T00381053  RH  052%=      5-min Rain = 0
KLD1 241244Z 36016KT 04/M05 A3008 RMK A01 T00381053  RH  052%=      5-min Rain = 0
KLD1 241245Z 35015KT 04/M05 A3008 RMK A01 T00381053  RH  052%=      5-min Rain = 0
KLD1 241246Z 36015KT 04/M05 A3008 RMK A01 T00381053  RH  051%=      5-min Rain = 0
KLD1 241247Z 36016G21KT 04/M05 A3008 RMK A01 T00371053  RH  052%=      5-min Rain = 0
KLD1 241248Z 36016KT 04/M05 A3008 RMK A01 T00371053  RH  052%=      5-min Rain = 0
KLD1 241249Z 36017G22KT 04/M05 A3008 RMK A01 T00381053  RH  052%=      5-min Rain = 0
KLD1 241250Z 36019KT 04/M05 A3008 RMK A01 T00381052  RH  052%=      5-min Rain = 0
KLD1 241251Z 36016KT 04/M05 A3008 RMK A01 T00391052  RH  052%=      5-min Rain = 0
KLD1 241252Z 36015KT 04/M05 A3008 RMK A01 T00391052  RH  052%=      5-min Rain = 0
KLD1 241253Z 36015KT 04/M05 A3008 RMK A01 T00381052  RH  052%=      5-min Rain = 0
KLD1 241254Z 36015KT 04/M05 A3008 RMK A01 T00371052  RH  052%=      5-min Rain = 0
KLD1 241255Z 36016KT 04/M05 A3009 RMK A01 T00371052  RH  052%=      5-min Rain = 0
KLD1 241256Z 36013KT 04/M05 A3009 RMK A01 T00371051  RH  052%=      5-min Rain = 0
KLD1 241257Z 36014KT 04/M05 A3009 RMK A01 T00371052  RH  052%=      5-min Rain = 0
KLD1 241258Z 36013KT 04/M05 A3009 RMK A01 T00361052  RH  053%=      5-min Rain = 0
KLD1 241259Z 36015KT 04/M05 A3009 RMK A01 T00351051  RH  053%=      5-min Rain = 0
KLD1 241300Z 36014KT 04/M05 A3009 RMK A01 T00351051  RH  053%=      5-min Rain = 0
KLD1 241301Z 36014KT 04/M05 A3009 RMK A01 T00351051  RH  053%=      5-min Rain = 0
KLD1 241302Z 36014KT 04/M05 A3009 RMK A01 T00351051  RH  053%=      5-min Rain = 0
KLD1 241303Z 36015KT 04/M05 A3009 RMK A01 T00351051  RH  053%=      5-min Rain = 0
KLD1 241304Z 36014KT 04/M05 A3009 RMK A01 T00351051  RH  053%=      5-min Rain = 0
KLD1 241305Z 35014KT 04/M05 A3009 RMK A01 T00351051  RH  053%=      5-min Rain = 0
KLD1 241306Z 36015KT 04/M05 A3009 RMK A01 T00351051  RH  053%=      5-min Rain = 0
KLD1 241307Z 35016KT 04/M05 A3009 RMK A01 T00351051  RH  053%=      5-min Rain = 0
KLD1 241308Z 35016KT 04/M05 A3009 RMK A01 T00351051  RH  053%=      5-min Rain = 0
KLD1 241309Z 36014KT 04/M05 A3009 RMK A01 T00351051  RH  053%=      5-min Rain = 0
KLD1 241310Z 36015KT 03/M05 A3009 RMK A01 T00341051  RH  053%=      5-min Rain = 0
KLD1 241311Z 36014KT 03/M05 A3009 RMK A01 T00341051  RH  054%=      5-min Rain = 0
KLD1 241312Z 36013KT 03/M05 A3009 RMK A01 T00341051  RH  054%=      5-min Rain = 0
KLD1 241313Z 36016KT 03/M05 A3009 RMK A01 T00341051  RH  054%=      5-min Rain = 0
KLD1 241314Z 36014KT 03/M05 A301 RMK A01 T00341051  RH  054%=      5-min Rain = 0
KLD1 241315Z 00014KT 04/M05 A301 RMK A01 T00351051  RH  053%=      5-min Rain = 0
KLD1 241316Z 36015KT 03/M05 A301 RMK A01 T00341051  RH  053%=      5-min Rain = 0
KLD1 241317Z 36014KT 03/M05 A301 RMK A01 T00341051  RH  054%=      5-min Rain = 0
KLD1 241318Z 35013KT 03/M05 A301 RMK A01 T00341051  RH  054%=      5-min Rain = 0
KLD1 241319Z 35012KT 03/M05 A301 RMK A01 T00331052  RH  054%=      5-min Rain = 0
KLD1 241320Z 35013KT 03/M05 A301 RMK A01 T00321052  RH  054%=      5-min Rain = 0
KLD1 241321Z 35013KT 03/M05 A301 RMK A01 T00311052  RH  054%=      5-min Rain = 0
KLD1 241322Z 34014KT 03/M05 A301 RMK A01 T00311051  RH  055%=      5-min Rain = 0
KLD1 241323Z 34011KT 03/M05 A301 RMK A01 T00311051  RH  055%=      5-min Rain = 0
KLD1 241324Z 34013G18KT 03/M05 A3011 RMK A01 T00311051  RH  055%=      5-min Rain = 0
KLD1 241325Z 35013KT 03/M05 A3011 RMK A01 T00311051  RH  055%=      5-min Rain = 0
KLD1 241326Z 35012KT 03/M05 A3011 RMK A01 T00311052  RH  054%=      5-min Rain = 0
KLD1 241327Z 35013KT 03/M05 A3011 RMK A01 T00321052  RH  054%=      5-min Rain = 0
KLD1 241328Z 35014KT 03/M05 A3011 RMK A01 T00321052  RH  054%=      5-min Rain = 0
KLD1 241329Z 35014KT 03/M05 A3011 RMK A01 T00331052  RH  054%=      5-min Rain = 0
KLD1 241330Z 35014KT 03/M05 A3011 RMK A01 T00331052  RH  054%=      5-min Rain = 0
KLD1 241331Z 35013KT 03/M05 A3011 RMK A01 T00331052  RH  054%=      5-min Rain = 0
KLD1 241332Z 35014KT 03/M05 A3011 RMK A01 T00331052  RH  054%=      5-min Rain = 0
KLD1 241333Z 36014KT 03/M05 A3011 RMK A01 T00331052  RH  054%=      5-min Rain = 0
KLD1 241334Z 36013KT 03/M05 A3011 RMK A01 T00331052  RH  054%=      5-min Rain = 0
KLD1 241335Z 36013KT 03/M05 A3011 RMK A01 T00331052  RH  054%=      5-min Rain = 0
KLD1 241336Z 00012G18KT 03/M05 A3011 RMK A01 T00331052  RH  054%=      5-min Rain = 0
KLD1 241337Z 36012KT 03/M05 A3011 RMK A01 T00331052  RH  054%=      5-min Rain = 0
KLD1 241338Z 36014KT 03/M05 A3011 RMK A01 T00331052  RH  054%=      5-min Rain = 0
KLD1 241339Z 36012KT 03/M05 A3011 RMK A01 T00331052  RH  054%=      5-min Rain = 0
KLD1 241340Z 00013KT 03/M05 A3012 RMK A01 T00331052  RH  054%=      5-min Rain = 0
KLD1 241341Z 36014KT 03/M05 A3012 RMK A01 T00331052  RH  054%=      5-min Rain = 0
KLD1 241342Z 35013KT 03/M05 A3012 RMK A01 T00331052  RH  054%=      5-min Rain = 0
KLD1 241343Z 35013KT 03/M05 A3012 RMK A01 T00331052  RH  054%=      5-min Rain = 0
KLD1 241344Z 35013G18KT 03/M05 A3012 RMK A01 T00331052  RH  054%=      5-min Rain = 0
KLD1 241345Z 35015KT 03/M05 A3012 RMK A01 T00331052  RH  054%=      5-min Rain = 0
KLD1 241346Z 35014KT 04/M05 A3012 RMK A01 T00351052  RH  053%=      5-min Rain = 0
KLD1 241347Z 35012KT 04/M05 A3012 RMK A01 T00351052  RH  053%=      5-min Rain = 0
KLD1 241348Z 35011KT 04/M05 A3012 RMK A01 T00351052  RH  053%=      5-min Rain = 0
KLD1 241349Z 35013G19KT 03/M05 A3012 RMK A01 T00341052  RH  053%=      5-min Rain = 0
KLD1 241350Z 35013KT 03/M05 A3012 RMK A01 T00341052  RH  053%=      5-min Rain = 0
KLD1 241351Z 35013KT 03/M05 A3012 RMK A01 T00341052  RH  053%=      5-min Rain = 0
KLD1 241352Z 35014KT 03/M05 A3012 RMK A01 T00331052  RH  054%=      5-min Rain = 0
KLD1 241353Z 35015KT 03/M05 A3012 RMK A01 T00331052  RH  054%=      5-min Rain = 0
KLD1 241354Z 36014KT 03/M05 A3012 RMK A01 T00331052  RH  054%=      5-min Rain = 0
KLD1 241355Z 36014KT 03/M05 A3012 RMK A01 T00341052  RH  053%=      5-min Rain = 0
KLD1 241356Z 36013KT 03/M05 A3012 RMK A01 T00341052  RH  054%=      5-min Rain = 0
KLD1 241357Z 36015KT 03/M05 A3012 RMK A01 T00341052  RH  054%=      5-min Rain = 0
KLD1 241358Z 35014KT 03/M05 A3013 RMK A01 T00341052  RH  053%=      5-min Rain = 0
KLD1 241359Z 36013KT 03/M05 A3013 RMK A01 T00341052  RH  053%=      5-min Rain = 0
KLD1 241400Z 35013KT 03/M05 A3013 RMK A01 T00341051  RH  053%=      5-min Rain = 0
KLD1 241401Z 35013KT 03/M05 A3013 RMK A01 T00341051  RH  053%=      5-min Rain = 0
KLD1 241402Z 35014KT 03/M05 A3013 RMK A01 T00341051  RH  053%=      5-min Rain = 0
KLD1 241403Z 35013KT 03/M05 A3013 RMK A01 T00341051  RH  054%=      5-min Rain = 0
KLD1 241404Z 36014KT 03/M05 A3013 RMK A01 T00341051  RH  054%=      5-min Rain = 0
KLD1 241405Z 35012KT 03/M05 A3013 RMK A01 T00341051  RH  054%=      5-min Rain = 0
KLD1 241406Z 35014G20KT 03/M05 A3013 RMK A01 T00341051  RH  054%=      5-min Rain = 0
KLD1 241407Z 35015KT 03/M05 A3013 RMK A01 T00341051  RH  054%=      5-min Rain = 0
KLD1 241408Z 35013KT 03/M05 A3013 RMK A01 T00341051  RH  053%=      5-min Rain = 0
KLD1 241409Z 35014KT 04/M05 A3013 RMK A01 T00351051  RH  053%=      5-min Rain = 0
KLD1 241410Z 35013KT 04/M05 A3013 RMK A01 T00351051  RH  053%=      5-min Rain = 0
KLD1 241411Z 36012KT 04/M05 A3013 RMK A01 T00351051  RH  054%=      5-min Rain = 0
KLD1 241412Z 35014KT 04/M05 A3013 RMK A01 T00351051  RH  054%=      5-min Rain = 0
KLD1 241413Z 36014KT 04/M05 A3013 RMK A01 T00351051  RH  053%=      5-min Rain = 0
KLD1 241414Z 35015KT 04/M05 A3014 RMK A01 T00361050  RH  053%=      5-min Rain = 0
KLD1 241415Z 36016KT 04/M05 A3014 RMK A01 T00361051  RH  053%=      5-min Rain = 0
KLD1 241416Z 36015KT 04/M05 A3014 RMK A01 T00361051  RH  053%=      5-min Rain = 0
KLD1 241417Z 35015KT 04/M05 A3014 RMK A01 T00361051  RH  053%=      5-min Rain = 0
KLD1 241418Z 36014KT 04/M05 A3014 RMK A01 T00361051  RH  053%=      5-min Rain = 0
KLD1 241419Z 36014KT 04/M05 A3014 RMK A01 T00361050  RH  053%=      5-min Rain = 0
KLD1 241420Z 00016KT 04/M05 A3014 RMK A01 T00361050  RH  053%=      5-min Rain = 0
KLD1 241421Z 00016G21KT 04/M05 A3014 RMK A01 T00371050  RH  053%=      5-min Rain = 0
KLD1 241422Z 00014KT 04/M05 A3014 RMK A01 T00371050  RH  053%=      5-min Rain = 0
KLD1 241423Z 36015KT 04/M05 A3014 RMK A01 T00371050  RH  053%=      5-min Rain = 0
KLD1 241424Z 00016G22KT 04/M05 A3014 RMK A01 T00381050  RH  053%=      5-min Rain = 0
KLD1 241425Z 00018G23KT 04/M05 A3014 RMK A01 T00381050  RH  053%=      5-min Rain = 0
KLD1 241426Z 36014G19KT 04/M05 A3014 RMK A01 T00391050  RH  052%=      5-min Rain = 0
KLD1 241427Z 36017KT 04/M05 A3014 RMK A01 T00391049  RH  052%=      5-min Rain = 0
KLD1 241428Z 36018KT 04/M05 A3014 RMK A01 T00401050  RH  052%=      5-min Rain = 0
KLD1 241429Z 00019KT 04/M05 A3015 RMK A01 T00401050  RH  052%=      5-min Rain = 0
KLD1 241430Z 00016KT 04/M05 A3015 RMK A01 T00401050  RH  052%=      5-min Rain = 0
KLD1 241431Z 00018KT 04/M05 A3015 RMK A01 T00411049  RH  052%=      5-min Rain = 0
KLD1 241432Z 00018KT 04/M05 A3015 RMK A01 T00411050  RH  052%=      5-min Rain = 0
KLD1 241433Z 00018G24KT 04/M05 A3015 RMK A01 T00411050  RH  052%=      5-min Rain = 0
KLD1 241434Z 00019KT 04/M05 A3015 RMK A01 T00421049  RH  051%=      5-min Rain = 0
KLD1 241435Z 01020KT 04/M05 A3015 RMK A01 T00421049  RH  051%=      5-min Rain = 0
KLD1 241436Z 01021KT 04/M05 A3015 RMK A01 T00431049  RH  051%=      5-min Rain = 0
KLD1 241437Z 01021KT 04/M05 A3015 RMK A01 T00431050  RH  051%=      5-min Rain = 0
KLD1 241438Z 01020G25KT 04/M05 A3015 RMK A01 T00431050  RH  051%=      5-min Rain = 0
KLD1 241439Z 01021G27KT 04/M05 A3015 RMK A01 T00441049  RH  051%=      5-min Rain = 0
KLD1 241440Z 01020G26KT 05/M05 A3015 RMK A01 T00451049  RH  051%=      5-min Rain = 0
KLD1 241441Z 01023G28KT 05/M05 A3015 RMK A01 T00461049  RH  050%=      5-min Rain = 0
KLD1 241442Z 01022G28KT 05/M05 A3015 RMK A01 T00461049  RH  050%=      5-min Rain = 0
KLD1 241443Z 01022KT 05/M05 A3015 RMK A01 T00461049  RH  050%=      5-min Rain = 0
KLD1 241444Z 01022G27KT 05/M05 A3015 RMK A01 T00471049  RH  050%=      5-min Rain = 0
KLD1 241445Z 01024G30KT 05/M05 A3015 RMK A01 T00471048  RH  050%=      5-min Rain = 0
KLD1 241446Z 01019KT 05/M05 A3015 RMK A01 T00481048  RH  050%=      5-min Rain = 0
KLD1 241447Z 00020G25KT 05/M05 A3016 RMK A01 T00491047  RH  050%=      5-min Rain = 0
KLD1 241448Z 00020KT 05/M05 A3016 RMK A01 T00491047  RH  050%=      5-min Rain = 0
KLD1 241449Z 01022KT 05/M05 A3016 RMK A01 T00491048  RH  050%=      5-min Rain = 0
KLD1 241450Z 00020KT 05/M05 A3016 RMK A01 T00491048  RH  050%=      5-min Rain = 0
KLD1 241451Z 00021KT 05/M05 A3016 RMK A01 T00491047  RH  050%=      5-min Rain = 0
KLD1 241452Z 36020KT 05/M05 A3016 RMK A01 T00491048  RH  050%=      5-min Rain = 0
KLD1 241453Z 01022KT 05/M05 A3016 RMK A01 T00481047  RH  050%=      5-min Rain = 0
KLD1 241454Z 01018KT 05/M05 A3016 RMK A01 T00481047  RH  050%=      5-min Rain = 0
KLD1 241455Z 01020KT 05/M05 A3016 RMK A01 T00491046  RH  050%=      5-min Rain = 0
KLD1 241456Z 01019G25KT 05/M05 A3016 RMK A01 T00491047  RH  050%=      5-min Rain = 0
KLD1 241457Z 01021KT 05/M05 A3016 RMK A01 T00491047  RH  050%=      5-min Rain = 0
KLD1 241458Z 01021KT 05/M05 A3016 RMK A01 T00491047  RH  050%=      5-min Rain = 0
KLD1 241459Z 00021G26KT 05/M05 A3016 RMK A01 T00491047  RH  050%=      5-min Rain = 0
KLD1 241500Z 01020KT 05/M05 A3016 RMK A01 T00491047  RH  050%=      5-min Rain = 0
KLD1 241501Z 00021G26KT 05/M05 A3017 RMK A01 T00491047  RH  050%=      5-min Rain = 0
KLD1 241502Z 00021KT 05/M05 A3017 RMK A01 T00491047  RH  050%=      5-min Rain = 0
KLD1 241503Z 00020G25KT 05/M05 A3017 RMK A01 T00491047  RH  050%=      5-min Rain = 0
KLD1 241504Z 00019KT 05/M05 A3017 RMK A01 T00491046  RH  050%=      5-min Rain = 0
KLD1 241505Z 01018KT 05/M04 A3017 RMK A01 T00501044  RH  050%=      5-min Rain = 0
KLD1 241506Z 01019G25KT 05/M04 A3017 RMK A01 T00521044  RH  050%=      5-min Rain = 0
KLD1 241507Z 00021G27KT 05/M05 A3017 RMK A01 T00511046  RH  050%=      5-min Rain = 0
KLD1 241508Z 01020KT 05/M05 A3017 RMK A01 T00511046  RH  050%=      5-min Rain = 0
KLD1 241509Z 01021KT 05/M05 A3017 RMK A01 T00511046  RH  050%=      5-min Rain = 0
KLD1 241510Z 01021KT 05/M05 A3017 RMK A01 T00511046  RH  050%=      5-min Rain = 0
KLD1 241511Z 01019G24KT 05/M05 A3017 RMK A01 T00511046  RH  050%=      5-min Rain = 0
KLD1 241512Z 01017G22KT 05/M05 A3017 RMK A01 T00511045  RH  050%=      5-min Rain = 0
KLD1 241513Z 02021G26KT 05/M04 A3017 RMK A01 T00531044  RH  049%=      5-min Rain = 0
KLD1 241514Z 02021KT 05/M05 A3017 RMK A01 T00531046  RH  049%=      5-min Rain = 0
KLD1 241515Z 01020KT 05/M05 A3017 RMK A01 T00521046  RH  049%=      5-min Rain = 0
KLD1 241516Z 01018G23KT 05/M05 A3017 RMK A01 T00521045  RH  049%=      5-min Rain = 0
KLD1 241517Z 01020KT 05/M04 A3017 RMK A01 T00541044  RH  049%=      5-min Rain = 0
KLD1 241518Z 01020KT 05/M05 A3017 RMK A01 T00541046  RH  049%=      5-min Rain = 0
KLD1 241519Z 02021KT 05/M05 A3017 RMK A01 T00541047  RH  048%=      5-min Rain = 0
KLD1 241520Z 01019G24KT 05/M05 A3018 RMK A01 T00531047  RH  048%=      5-min Rain = 0
KLD1 241521Z 01021KT 05/M05 A3018 RMK A01 T00541046  RH  048%=      5-min Rain = 0
KLD1 241522Z 01020KT 05/M05 A3018 RMK A01 T00541046  RH  048%=      5-min Rain = 0
KLD1 241523Z 01021KT 06/M05 A3018 RMK A01 T00551046  RH  048%=      5-min Rain = 0
KLD1 241524Z 01021KT 06/M05 A3018 RMK A01 T00561046  RH  048%=      5-min Rain = 0
KLD1 241525Z 01020KT 06/M05 A3018 RMK A01 T00561046  RH  048%=      5-min Rain = 0
KLD1 241526Z 01021G26KT 06/M05 A3018 RMK A01 T00571047  RH  047%=      5-min Rain = 0
KLD1 241527Z 00022G27KT 06/M05 A3018 RMK A01 T00571047  RH  047%=      5-min Rain = 0
KLD1 241528Z 00021KT 06/M05 A3018 RMK A01 T00561048  RH  047%=      5-min Rain = 0
KLD1 241529Z 01022KT 06/M05 A3018 RMK A01 T00571047  RH  047%=      5-min Rain = 0
KLD1 241530Z 01020KT 06/M05 A3018 RMK A01 T00571048  RH  047%=      5-min Rain = 0
KLD1 241531Z 01019KT 06/M05 A3018 RMK A01 T00581048  RH  047%=      5-min Rain = 0
KLD1 241532Z 01018KT 06/M05 A3018 RMK A01 T00591047  RH  047%=      5-min Rain = 0
KLD1 241533Z 01018G23KT 06/M05 A3018 RMK A01 T00591047  RH  046%=      5-min Rain = 0
KLD1 241534Z 01018KT 06/M05 A3019 RMK A01 T00601046  RH  046%=      5-min Rain = 0
KLD1 241535Z 01019G24KT 06/M05 A3019 RMK A01 T00621046  RH  046%=      5-min Rain = 0
KLD1 241536Z 01019KT 06/M05 A3019 RMK A01 T00621048  RH  045%=      5-min Rain = 0
KLD1 241537Z 01018KT 06/M05 A3019 RMK A01 T00601049  RH  046%=      5-min Rain = 0
KLD1 241538Z 01019KT 06/M05 A3019 RMK A01 T00601047  RH  046%=      5-min Rain = 0
KLD1 241539Z 02018KT 06/M05 A3019 RMK A01 T00611047  RH  046%=      5-min Rain = 0
KLD1 241540Z 01018G24KT 06/M05 A3019 RMK A01 T00621046  RH  046%=      5-min Rain = 0
KLD1 241541Z 01021KT 06/M05 A3019 RMK A01 T00631046  RH  045%=      5-min Rain = 0
KLD1 241542Z 01020G25KT 06/M05 A3019 RMK A01 T00611048  RH  045%=      5-min Rain = 0
KLD1 241543Z 01019KT 06/M05 A3019 RMK A01 T00611048  RH  046%=      5-min Rain = 0
KLD1 241544Z 02020G25KT 06/M05 A3019 RMK A01 T00621047  RH  046%=      5-min Rain = 0
KLD1 241545Z 01020KT 06/M05 A3019 RMK A01 T00621047  RH  045%=      5-min Rain = 0
KLD1 241546Z 01019KT 06/M05 A3019 RMK A01 T00621047  RH  045%=      5-min Rain = 0
KLD1 241547Z 01019G25KT 06/M05 A3019 RMK A01 T00631046  RH  046%=      5-min Rain = 0
KLD1 241548Z 01021KT 06/M05 A3019 RMK A01 T00631047  RH  045%=      5-min Rain = 0
KLD1 241549Z 01018KT 06/M05 A3019 RMK A01 T00621047  RH  045%=      5-min Rain = 0
KLD1 241550Z 01018KT 06/M05 A3019 RMK A01 T00631045  RH  046%=      5-min Rain = 0
KLD1 241551Z 02018KT 07/M05 A3019 RMK A01 T00661045  RH  045%=      5-min Rain = 0
KLD1 241552Z 02017KT 07/M05 A3019 RMK A01 T00661045  RH  045%=      5-min Rain = 0
KLD1 241553Z 01017KT 07/M04 A3019 RMK A01 T00671044  RH  045%=      5-min Rain = 0
KLD1 241554Z 02019KT 07/M04 A3019 RMK A01 T00691044  RH  044%=      5-min Rain = 0
KLD1 241555Z 02017KT 07/M05 A3019 RMK A01 T00671046  RH  044%=      5-min Rain = 0
KLD1 241556Z 02017KT 07/M05 A3019 RMK A01 T00671046  RH  044%=      5-min Rain = 0
KLD1 241557Z 01018KT 07/M04 A3019 RMK A01 T00681044  RH  045%=      5-min Rain = 0
KLD1 241558Z 02018KT 07/M05 A3019 RMK A01 T00681045  RH  044%=      5-min Rain = 0
KLD1 241559Z 02017KT 07/M05 A3019 RMK A01 T00671046  RH  044%=      5-min Rain = 0
KLD1 241600Z 01018KT 07/M05 A3019 RMK A01 T00671045  RH  044%=      5-min Rain = 0
KLD1 241601Z 01018G23KT 07/M05 A3019 RMK A01 T00681046  RH  044%=      5-min Rain = 0
KLD1 241602Z 01017KT 07/M05 A3019 RMK A01 T00671046  RH  044%=      5-min Rain = 0
KLD1 241603Z 01015KT 07/M05 A3019 RMK A01 T00681046  RH  044%=      5-min Rain = 0
KLD1 241604Z 01016KT 07/M04 A3019 RMK A01 T00701044  RH  044%=      5-min Rain = 0
KLD1 241605Z 02017KT 07/M05 A3019 RMK A01 T00711045  RH  043%=      5-min Rain = 0
KLD1 241606Z 02016KT 07/M05 A3019 RMK A01 T00701046  RH  043%=      5-min Rain = 0
KLD1 241607Z 02016KT 07/M05 A3019 RMK A01 T00691046  RH  044%=      5-min Rain = 0
KLD1 241608Z 02018KT 07/M05 A3019 RMK A01 T00701046  RH  043%=      5-min Rain = 0
KLD1 241609Z 02016G21KT 07/M05 A3019 RMK A01 T00701047  RH  043%=      5-min Rain = 0
KLD1 241610Z 02016G22KT 07/M05 A3019 RMK A01 T00711046  RH  043%=      5-min Rain = 0
KLD1 241611Z 01016KT 07/M05 A3019 RMK A01 T00731045  RH  043%=      5-min Rain = 0
KLD1 241612Z 01016KT 07/M05 A3019 RMK A01 T00731046  RH  043%=      5-min Rain = 0
KLD1 241613Z 01018G23KT 07/M05 A3019 RMK A01 T00731047  RH  042%=      5-min Rain = 0
KLD1 241614Z 01018KT 07/M05 A3019 RMK A01 T00721048  RH  042%=      5-min Rain = 0
KLD1 241615Z 01015KT 07/M05 A3019 RMK A01 T00711048  RH  042%=      5-min Rain = 0
KLD1 241616Z 02018KT 08/M04 A3019 RMK A01 T00751044  RH  043%=      5-min Rain = 0
KLD1 241617Z 02017KT 08/M05 A3019 RMK A01 T00761046  RH  042%=      5-min Rain = 0
KLD1 241618Z 02017KT 08/M05 A3019 RMK A01 T00751047  RH  042%=      5-min Rain = 0
KLD1 241619Z 02015KT 08/M05 A3019 RMK A01 T00751047  RH  042%=      5-min Rain = 0
KLD1 241620Z 02015KT 08/M05 A3019 RMK A01 T00771045  RH  042%=      5-min Rain = 0
KLD1 241621Z 03016KT 08/M05 A3019 RMK A01 T00771047  RH  041%=      5-min Rain = 0
KLD1 241622Z 02016G21KT 08/M05 A3019 RMK A01 T00781047  RH  041%=      5-min Rain = 0
KLD1 241623Z 02014KT 08/M05 A3019 RMK A01 T00761049  RH  041%=      5-min Rain = 0
KLD1 241624Z 03016KT 08/M05 A3019 RMK A01 T00761048  RH  041%=      5-min Rain = 0
KLD1 241625Z 02015G20KT 08/M05 A3019 RMK A01 T00751050  RH  041%=      5-min Rain = 0
KLD1 241626Z 01014KT 07/M05 A3019 RMK A01 T00741050  RH  041%=      5-min Rain = 0
KLD1 241627Z 03015KT 07/M05 A3019 RMK A01 T00741049  RH  041%=      5-min Rain = 0
KLD1 241628Z 03015KT 08/M05 A3019 RMK A01 T00751049  RH  041%=      5-min Rain = 0
KLD1 241629Z 02017KT 08/M05 A3019 RMK A01 T00761048  RH  041%=      5-min Rain = 0
KLD1 241630Z 01016KT 08/M05 A3019 RMK A01 T00761050  RH  040%=      5-min Rain = 0
KLD1 241631Z 02017G22KT 08/M05 A3019 RMK A01 T00751050  RH  041%=      5-min Rain = 0
KLD1 241632Z 02018G23KT 08/M05 A3019 RMK A01 T00751051  RH  041%=      5-min Rain = 0
KLD1 241633Z 01018KT 07/M05 A3019 RMK A01 T00741051  RH  041%=      5-min Rain = 0
KLD1 241634Z 01016KT 08/M05 A3019 RMK A01 T00751050  RH  041%=      5-min Rain = 0
KLD1 241635Z 02018KT 08/M05 A3019 RMK A01 T00761050  RH  041%=      5-min Rain = 0
KLD1 241636Z 02018KT 08/M05 A3019 RMK A01 T00781049  RH  040%=      5-min Rain = 0
KLD1 241637Z 03013KT 08/M05 A3019 RMK A01 T00781051  RH  040%=      5-min Rain = 0
KLD1 241638Z 02015G21KT 08/M05 A3019 RMK A01 T00771050  RH  040%=      5-min Rain = 0
KLD1 241639Z 02018KT 08/M05 A3019 RMK A01 T00781049  RH  040%=      5-min Rain = 0
KLD1 241640Z 02017KT 08/M05 A3019 RMK A01 T00791050  RH  040%=      5-min Rain = 0
KLD1 241641Z 04016KT 08/M05 A3019 RMK A01 T00791050  RH  040%=      5-min Rain = 0
KLD1 241642Z 04016KT 08/M05 A3019 RMK A01 T00801050  RH  039%=      5-min Rain = 0
KLD1 241643Z 03017G22KT 08/M05 A3019 RMK A01 T00811050  RH  039%=      5-min Rain = 0
KLD1 241644Z 02018KT 08/M05 A3019 RMK A01 T00791051  RH  039%=      5-min Rain = 0
KLD1 241645Z 03015KT 08/M05 A3019 RMK A01 T00801050  RH  040%=      5-min Rain = 0
KLD1 241646Z 03016KT 08/M05 A3019 RMK A01 T00831047  RH  039%=      5-min Rain = 0
KLD1 241647Z 04016KT 08/M05 A3019 RMK A01 T00841049  RH  038%=      5-min Rain = 0
KLD1 241648Z 04014KT 08/M05 A3019 RMK A01 T00831050  RH  039%=      5-min Rain = 0
KLD1 241649Z 03018KT 08/M05 A3019 RMK A01 T00831049  RH  039%=      5-min Rain = 0
KLD1 241650Z 04015KT 08/M05 A3019 RMK A01 T00831051  RH  038%=      5-min Rain = 0
KLD1 241651Z 04013KT 08/M05 A3019 RMK A01 T00831050  RH  039%=      5-min Rain = 0
KLD1 241652Z 03015KT 08/M05 A3019 RMK A01 T00841049  RH  039%=      5-min Rain = 0
KLD1 241653Z 03018KT 08/M05 A3019 RMK A01 T00831049  RH  039%=      5-min Rain = 0
KLD1 241654Z 04015KT 08/M05 A3019 RMK A01 T00821052  RH  038%=      5-min Rain = 0
KLD1 241655Z 03016KT 08/M05 A3019 RMK A01 T00781053  RH  039%=      5-min Rain = 0
KLD1 241656Z 02016KT 08/M05 A3019 RMK A01 T00781051  RH  040%=      5-min Rain = 0
KLD1 241657Z 03016KT 08/M05 A3019 RMK A01 T00821047  RH  040%=      5-min Rain = 0
KLD1 241658Z 03018KT 09/M05 A3019 RMK A01 T00871046  RH  039%=      5-min Rain = 0
KLD1 241659Z 03017KT 09/M05 A3019 RMK A01 T00861050  RH  038%=      5-min Rain = 0
KLD1 241700Z 02017KT 08/M05 A3019 RMK A01 T00841050  RH  038%=      5-min Rain = 0
KLD1 241701Z 03018KT 09/M05 A3019 RMK A01 T00851050  RH  038%=      5-min Rain = 0
KLD1 241702Z 04017KT 08/M05 A3019 RMK A01 T00831051  RH  038%=      5-min Rain = 0
KLD1 241703Z 04016KT 09/M05 A3019 RMK A01 T00851048  RH  039%=      5-min Rain = 0
KLD1 241704Z 03014KT 09/M05 A3019 RMK A01 T00851049  RH  038%=      5-min Rain = 0
KLD1 241705Z 03014G21KT 09/M05 A3019 RMK A01 T00851048  RH  038%=      5-min Rain = 0
KLD1 241706Z 03018G23KT 09/M05 A3019 RMK A01 T00861049  RH  038%=      5-min Rain = 0
KLD1 241707Z 03015G20KT 09/M05 A3019 RMK A01 T00861050  RH  038%=      5-min Rain = 0
KLD1 241708Z 03014KT 09/M05 A3019 RMK A01 T00881048  RH  038%=      5-min Rain = 0
KLD1 241709Z 02013KT 09/M05 A3019 RMK A01 T00881050  RH  037%=      5-min Rain = 0
KLD1 241710Z 02014KT 09/M05 A3019 RMK A01 T00891048  RH  038%=      5-min Rain = 0
KLD1 241711Z 04016KT 09/M05 A3019 RMK A01 T00881049  RH  038%=      5-min Rain = 0
KLD1 241712Z 04015KT 09/M05 A3019 RMK A01 T00881050  RH  037%=      5-min Rain = 0
KLD1 241713Z 03018KT 09/M05 A3019 RMK A01 T00861051  RH  037%=      5-min Rain = 0
KLD1 241714Z 03015KT 09/M05 A3019 RMK A01 T00861050  RH  038%=      5-min Rain = 0
KLD1 241715Z 03016G21KT 09/M05 A3019 RMK A01 T00871049  RH  038%=      5-min Rain = 0
KLD1 241716Z 03015KT 09/M05 A3019 RMK A01 T00891049  RH  037%=      5-min Rain = 0
KLD1 241717Z 03016KT 09/M05 A3019 RMK A01 T00891049  RH  037%=      5-min Rain = 0
KLD1 241718Z 03016KT 09/M05 A3019 RMK A01 T00891049  RH  037%=      5-min Rain = 0
KLD1 241719Z 02015KT 09/M05 A3019 RMK A01 T00911049  RH  037%=      5-min Rain = 0
KLD1 241720Z 03016G21KT 09/M05 A3019 RMK A01 T00891050  RH  037%=      5-min Rain = 0
KLD1 241721Z 04016KT 09/M05 A3019 RMK A01 T00901050  RH  037%=      5-min Rain = 0
KLD1 241722Z 05015KT 09/M05 A3019 RMK A01 T00891049  RH  037%=      5-min Rain = 0
KLD1 241723Z 04014KT 09/M05 A3019 RMK A01 T00901049  RH  037%=      5-min Rain = 0
KLD1 241724Z 03014KT 09/M05 A3019 RMK A01 T00901047  RH  037%=      5-min Rain = 0
KLD1 241725Z 02015KT 09/M05 A3019 RMK A01 T00921047  RH  037%=      5-min Rain = 0
KLD1 241726Z 03015KT 09/M05 A3019 RMK A01 T00921047  RH  037%=      5-min Rain = 0
KLD1 241727Z 03015KT 10/M04 A3019 RMK A01 T00971044  RH  037%=      5-min Rain = 0
KLD1 241728Z 03015KT 10/M05 A3019 RMK A01 T00971048  RH  036%=      5-min Rain = 0
KLD1 241729Z 03013KT 10/M05 A3019 RMK A01 T00951049  RH  036%=      5-min Rain = 0
KLD1 241730Z 02015KT 10/M05 A3019 RMK A01 T00951047  RH  036%=      5-min Rain = 0
KLD1 241731Z 03014KT 10/M05 A3019 RMK A01 T00951050  RH  036%=      5-min Rain = 0
KLD1 241732Z 03013KT 09/M05 A3019 RMK A01 T00941049  RH  036%=      5-min Rain = 0
KLD1 241733Z 03012KT 09/M05 A3018 RMK A01 T00931048  RH  036%=      5-min Rain = 0
KLD1 241734Z 02015KT 10/M05 A3018 RMK A01 T00951046  RH  037%=      5-min Rain = 0
KLD1 241735Z 04014KT 10/M05 A3018 RMK A01 T00971046  RH  036%=      5-min Rain = 0
KLD1 241736Z 03016KT 10/M05 A3018 RMK A01 T01001046  RH  036%=      5-min Rain = 0
KLD1 241737Z 05016KT 10/M05 A3018 RMK A01 T00971050  RH  035%=      5-min Rain = 0
KLD1 241738Z 05013KT 10/M05 A3018 RMK A01 T00951050  RH  035%=      5-min Rain = 0
KLD1 241739Z 05014KT 10/M05 A3018 RMK A01 T00951049  RH  036%=      5-min Rain = 0
KLD1 241740Z 05013KT 10/M05 A3018 RMK A01 T00961047  RH  036%=      5-min Rain = 0
KLD1 241741Z 04014KT 10/M04 A3018 RMK A01 T01011043  RH  036%=      5-min Rain = 0
KLD1 241742Z 03014G19KT 10/M05 A3018 RMK A01 T01011048  RH  035%=      5-min Rain = 0
KLD1 241743Z 05014KT 10/M05 A3018 RMK A01 T00991049  RH  035%=      5-min Rain = 0
KLD1 241744Z 05014KT 10/M05 A3018 RMK A01 T00981048  RH  035%=      5-min Rain = 0
KLD1 241745Z 05015KT 10/M05 A3018 RMK A01 T00981049  RH  035%=      5-min Rain = 0
KLD1 241746Z 05012KT 10/M05 A3018 RMK A01 T01001047  RH  035%=      5-min Rain = 0
KLD1 241747Z 04014G21KT 10/M05 A3018 RMK A01 T01031046  RH  035%=      5-min Rain = 0
KLD1 241748Z 03016KT 11/M05 A3018 RMK A01 T01051048  RH  034%=      5-min Rain = 0
KLD1 241749Z 03014KT 10/M05 A3018 RMK A01 T01011050  RH  034%=      5-min Rain = 0
KLD1 241750Z 04014KT 10/M05 A3018 RMK A01 T01041046  RH  035%=      5-min Rain = 0
KLD1 241751Z 04011KT 10/M05 A3018 RMK A01 T01011050  RH  034%=      5-min Rain = 0
KLD1 241752Z 04017KT 10/M05 A3018 RMK A01 T00991050  RH  035%=      5-min Rain = 0
KLD1 241753Z 05015KT 10/M05 A3018 RMK A01 T01021049  RH  034%=      5-min Rain = 0
KLD1 241754Z 04011KT 10/M05 A3018 RMK A01 T01021051  RH  034%=      5-min Rain = 0
KLD1 241755Z 05014G20KT 10/M05 A3018 RMK A01 T01031048  RH  034%=      5-min Rain = 0
KLD1 241756Z 05016KT 10/M05 A3018 RMK A01 T01041049  RH  034%=      5-min Rain = 0
KLD1 241757Z 04013KT 10/M05 A3018 RMK A01 T01021050  RH  034%=      5-min Rain = 0
KLD1 241758Z 03015G20KT 10/M05 A3018 RMK A01 T01041048  RH  034%=      5-min Rain = 0
KLD1 241759Z 05015G20KT 11/M05 A3018 RMK A01 T01081047  RH  033%=      5-min Rain = 0
KLD1 241800Z 04015G20KT 11/M05 A3018 RMK A01 T01061051  RH  033%=      5-min Rain = 0
KLD1 241801Z 04012KT 11/M05 A3018 RMK A01 T01051052  RH  033%=      5-min Rain = 0
KLD1 241802Z 05012KT 10/M05 A3018 RMK A01 T01031051  RH  033%=      5-min Rain = 0
KLD1 241803Z 05011KT 10/M05 A3018 RMK A01 T01031052  RH  033%=      5-min Rain = 0
KLD1 241804Z 04015KT 11/M05 A3018 RMK A01 T01051049  RH  033%=      5-min Rain = 0
KLD1 241805Z 04015KT 11/M05 A3018 RMK A01 T01101050  RH  032%=      5-min Rain = 0
KLD1 241806Z 05013G18KT 11/M06 A3018 RMK A01 T01081055  RH  032%=      5-min Rain = 0
KLD1 241807Z 05014KT 11/M06 A3018 RMK A01 T01051055  RH  032%=      5-min Rain = 0
KLD1 241808Z 05012KT 11/M05 A3017 RMK A01 T01051054  RH  032%=      5-min Rain = 0
KLD1 241809Z 06012KT 10/M05 A3017 RMK A01 T01041053  RH  033%=      5-min Rain = 0
KLD1 241810Z 05012G17KT 10/M05 A3017 RMK A01 T01041052  RH  033%=      5-min Rain = 0
KLD1 241811Z 04014KT 11/M05 A3017 RMK A01 T01071051  RH  033%=      5-min Rain = 0
KLD1 241812Z 05011KT 11/M05 A3017 RMK A01 T01071052  RH  032%=      5-min Rain = 0
KLD1 241813Z 04013G18KT 11/M05 A3017 RMK A01 T01071051  RH  033%=      5-min Rain = 0
KLD1 241814Z 04012KT 11/M05 A3017 RMK A01 T01091054  RH  031%=      5-min Rain = 0
KLD1 241815Z 06011KT 11/M05 A3017 RMK A01 T01121051  RH  031%=      5-min Rain = 0
KLD1 241816Z 05009G14KT 11/M05 A3018 RMK A01 T01131052  RH  031%=      5-min Rain = 0
KLD1 241817Z 05011G16KT 11/M05 A3017 RMK A01 T01121052  RH  031%=      5-min Rain = 0
KLD1 241818Z 05015G20KT 11/M05 A3017 RMK A01 T01141050  RH  031%=      5-min Rain = 0
KLD1 241819Z 04017KT 11/M06 A3017 RMK A01 T01131055  RH  031%=      5-min Rain = 0
KLD1 241820Z 04015KT 11/M05 A3017 RMK A01 T01131054  RH  031%=      5-min Rain = 0
KLD1 241821Z 05014KT 11/M06 A3017 RMK A01 T01111056  RH  031%=      5-min Rain = 0
KLD1 241822Z 04011KT 11/M06 A3017 RMK A01 T01071058  RH  031%=      5-min Rain = 0
KLD1 241823Z 05011KT 11/M06 A3017 RMK A01 T01061056  RH  031%=      5-min Rain = 0
KLD1 241824Z 06015KT 11/M05 A3017 RMK A01 T01091052  RH  032%=      5-min Rain = 0
KLD1 241825Z 06011KT 11/M05 A3017 RMK A01 T01081054  RH  032%=      5-min Rain = 0
KLD1 241826Z 07011KT 11/M05 A3017 RMK A01 T01071054  RH  032%=      5-min Rain = 0
KLD1 241827Z 07009KT 11/M05 A3017 RMK A01 T01061053  RH  032%=      5-min Rain = 0
KLD1 241828Z 05014KT 11/M05 A3017 RMK A01 T01091049  RH  033%=      5-min Rain = 0
KLD1 241829Z 05012KT 11/M05 A3017 RMK A01 T01131051  RH  031%=      5-min Rain = 0
KLD1 241830Z 06009KT 11/M05 A3017 RMK A01 T01121052  RH  031%=      5-min Rain = 0
KLD1 241831Z 05011G16KT 12/M05 A3017 RMK A01 T01151049  RH  031%=      5-min Rain = 0
KLD1 241832Z 06013KT 12/M05 A3017 RMK A01 T01161052  RH  030%=      5-min Rain = 0
KLD1 241833Z 05011KT 12/M05 A3017 RMK A01 T01171051  RH  030%=      5-min Rain = 0
KLD1 241834Z 05009G15KT 12/M05 A3017 RMK A01 T01171052  RH  030%=      5-min Rain = 0
KLD1 241835Z 06012KT 12/M05 A3017 RMK A01 T01151054  RH  030%=      5-min Rain = 0
KLD1 241836Z 04009KT 12/M05 A3017 RMK A01 T01151053  RH  030%=      5-min Rain = 0
KLD1 241837Z 04010KT 12/M05 A3017 RMK A01 T01151051  RH  031%=      5-min Rain = 0
KLD1 241838Z 04012KT 12/M05 A3017 RMK A01 T01171052  RH  030%=      5-min Rain = 0
KLD1 241839Z 04011KT 12/M05 A3017 RMK A01 T01171053  RH  030%=      5-min Rain = 0
KLD1 241840Z 06014KT 12/M05 A3017 RMK A01 T01211049  RH  030%=      5-min Rain = 0
KLD1 241841Z 06012KT 12/M06 A3017 RMK A01 T01221055  RH  029%=      5-min Rain = 0
KLD1 241842Z 05010KT 12/M06 A3017 RMK A01 T01211056  RH  029%=      5-min Rain = 0
KLD1 241843Z 07008KT 12/M06 A3017 RMK A01 T01201057  RH  029%=      5-min Rain = 0
KLD1 241844Z 05011KT 12/M05 A3017 RMK A01 T01201053  RH  029%=      5-min Rain = 0
KLD1 241845Z 06011KT 12/M05 A3017 RMK A01 T01241051  RH  029%=      5-min Rain = 0
KLD1 241846Z 07010KT 12/M05 A3017 RMK A01 T01241054  RH  028%=      5-min Rain = 0
KLD1 241847Z 08008KT 12/M06 A3017 RMK A01 T01211058  RH  028%=      5-min Rain = 0
KLD1 241848Z 08009KT 12/M06 A3017 RMK A01 T01201058  RH  028%=      5-min Rain = 0
KLD1 241849Z 06011KT 12/M06 A3017 RMK A01 T01201058  RH  028%=      5-min Rain = 0
KLD1 241850Z 05013KT 12/M06 A3017 RMK A01 T01221055  RH  029%=      5-min Rain = 0
KLD1 241851Z 06012KT 12/M06 A3017 RMK A01 T01241057  RH  028%=      5-min Rain = 0
KLD1 241852Z 05012KT 12/M06 A3017 RMK A01 T01221059  RH  028%=      5-min Rain = 0
KLD1 241853Z 04008KT 12/M06 A3017 RMK A01 T01201060  RH  028%=      5-min Rain = 0
KLD1 241854Z 05009KT 12/M06 A3017 RMK A01 T01191060  RH  028%=      5-min Rain = 0
KLD1 241855Z 06013KT 12/M06 A3017 RMK A01 T01211057  RH  028%=      5-min Rain = 0
KLD1 241856Z 07012KT 12/M06 A3017 RMK A01 T01241059  RH  027%=      5-min Rain = 0
KLD1 241857Z 07011G16KT 12/M06 A3016 RMK A01 T01231063  RH  027%=      5-min Rain = 0
KLD1 241858Z 05010KT 12/M06 A3016 RMK A01 T01231058  RH  028%=      5-min Rain = 0
KLD1 241859Z 06014KT 12/M06 A3016 RMK A01 T01231059  RH  028%=      5-min Rain = 0
KLD1 241900Z 06012KT 12/M06 A3017 RMK A01 T01221062  RH  027%=      5-min Rain = 0
KLD1 241901Z 06011KT 12/M06 A3016 RMK A01 T01211061  RH  028%=      5-min Rain = 0
KLD1 241902Z 07008KT 12/M06 A3017 RMK A01 T01201061  RH  028%=      5-min Rain = 0
KLD1 241903Z 06013G18KT 12/M06 A3016 RMK A01 T01191060  RH  028%=      5-min Rain = 0
KLD1 241904Z 07013KT 12/M06 A3016 RMK A01 T01201058  RH  028%=      5-min Rain = 0
KLD1 241905Z 08010KT 12/M06 A3017 RMK A01 T01201057  RH  029%=      5-min Rain = 0
KLD1 241906Z 08009KT 12/M06 A3017 RMK A01 T01201058  RH  028%=      5-min Rain = 0
KLD1 241907Z 05009KT 12/M06 A3017 RMK A01 T01191057  RH  029%=      5-min Rain = 0
KLD1 241908Z 07005KT 12/M06 A3017 RMK A01 T01171060  RH  028%=      5-min Rain = 0
KLD1 241909Z 06009G14KT 12/M06 A3017 RMK A01 T01171057  RH  029%=      5-min Rain = 0
KLD1 241910Z 07009KT 12/M06 A3016 RMK A01 T01201056  RH  029%=      5-min Rain = 0
KLD1 241911Z 07011KT 12/M06 A3016 RMK A01 T01201057  RH  029%=      5-min Rain = 0
KLD1 241912Z 06013KT 12/M06 A3016 RMK A01 T01231058  RH  028%=      5-min Rain = 0
KLD1 241913Z 06010KT 12/M06 A3016 RMK A01 T01231060  RH  027%=      5-min Rain = 0
KLD1 241914Z 07010G15KT 13/M06 A3016 RMK A01 T01251057  RH  028%=      5-min Rain = 0
KLD1 241915Z 09010KT 13/M06 A3016 RMK A01 T01251060  RH  027%=      5-min Rain = 0
KLD1 241916Z 08008KT 12/M06 A3016 RMK A01 T01231060  RH  027%=      5-min Rain = 0
KLD1 241917Z 10011KT 13/M06 A3016 RMK A01 T01251058  RH  028%=      5-min Rain = 0
KLD1 241918Z 10011KT 13/M06 A3016 RMK A01 T01271058  RH  027%=      5-min Rain = 0
KLD1 241919Z 09009KT 13/M06 A3016 RMK A01 T01251058  RH  027%=      5-min Rain = 0
KLD1 241920Z 08010KT 13/M06 A3016 RMK A01 T01251058  RH  027%=      5-min Rain = 0
KLD1 241921Z 07011KT 13/M06 A3016 RMK A01 T01261056  RH  028%=      5-min Rain = 0
KLD1 241922Z 06010KT 13/M06 A3016 RMK A01 T01261057  RH  028%=      5-min Rain = 0
KLD1 241923Z 06007KT 12/M06 A3016 RMK A01 T01241058  RH  027%=      5-min Rain = 0
KLD1 241924Z 05004KT 13/M06 A3015 RMK A01 T01251056  RH  028%=      5-min Rain = 0
KLD1 241925Z 07004KT 13/M06 A3015 RMK A01 T01271055  RH  028%=      5-min Rain = 0
KLD1 241926Z 06003KT 13/M06 A3015 RMK A01 T01261058  RH  027%=      5-min Rain = 0
KLD1 241927Z 07003KT 12/M06 A3015 RMK A01 T01241058  RH  028%=      5-min Rain = 0
KLD1 241928Z 08006G11KT 12/M06 A3015 RMK A01 T01231057  RH  028%=      5-min Rain = 0
KLD1 241929Z 09008KT 13/M06 A3015 RMK A01 T01251055  RH  028%=      5-min Rain = 0
KLD1 241930Z 10008KT 13/M06 A3015 RMK A01 T01251055  RH  028%=      5-min Rain = 0
KLD1 241931Z 06008KT 13/M06 A3015 RMK A01 T01271056  RH  028%=      5-min Rain = 0
KLD1 241932Z 07011KT 13/M05 A3014 RMK A01 T01291053  RH  028%=      5-min Rain = 0
KLD1 241933Z 05011KT 13/M05 A3014 RMK A01 T01301054  RH  027%=      5-min Rain = 0
KLD1 241934Z 03010KT 13/M06 A3014 RMK A01 T01271056  RH  027%=      5-min Rain = 0
KLD1 241935Z 03008KT 13/M06 A3014 RMK A01 T01261057  RH  028%=      5-min Rain = 0
KLD1 241936Z 07008KT 13/M06 A3014 RMK A01 T01261056  RH  028%=      5-min Rain = 0
KLD1 241937Z 10006KT 13/M06 A3014 RMK A01 T01261057  RH  027%=      5-min Rain = 0
KLD1 241938Z 09010KT 13/M06 A3014 RMK A01 T01261057  RH  028%=      5-min Rain = 0
KLD1 241939Z 05009KT 13/M05 A3013 RMK A01 T01271054  RH  028%=      5-min Rain = 0
KLD1 241940Z 04006KT 13/M05 A3013 RMK A01 T01291054  RH  028%=      5-min Rain = 0
KLD1 241941Z 08008KT 13/M05 A3013 RMK A01 T01281054  RH  028%=      5-min Rain = 0
KLD1 241942Z 09009KT 13/M05 A3013 RMK A01 T01291054  RH  028%=      5-min Rain = 0
KLD1 241943Z 08009KT 13/M05 A3013 RMK A01 T01311052  RH  028%=      5-min Rain = 0
KLD1 241944Z 07009KT 13/M05 A3013 RMK A01 T01321053  RH  027%=      5-min Rain = 0
KLD1 241945Z 06006KT 13/M05 A3013 RMK A01 T01301053  RH  027%=      5-min Rain = 0
KLD1 241946Z 06005KT 13/M05 A3013 RMK A01 T01301053  RH  028%=      5-min Rain = 0
KLD1 241947Z 04007KT 13/M05 A3013 RMK A01 T01291053  RH  028%=      5-min Rain = 0
KLD1 241948Z 05009KT 13/M05 A3013 RMK A01 T01301053  RH  028%=      5-min Rain = 0
KLD1 241949Z 06007KT 13/M06 A3013 RMK A01 T01281055  RH  027%=      5-min Rain = 0
KLD1 241950Z 09007G12KT 13/M05 A3013 RMK A01 T01271054  RH  028%=      5-min Rain = 0
KLD1 241951Z 11010KT 13/M05 A3013 RMK A01 T01321050  RH  028%=      5-min Rain = 0
KLD1 241952Z 10007KT 13/M05 A3013 RMK A01 T01341054  RH  027%=      5-min Rain = 0
KLD1 241953Z 08008KT 13/M05 A3013 RMK A01 T01331054  RH  027%=      5-min Rain = 0
KLD1 241954Z 07009KT 13/M06 A3013 RMK A01 T01341055  RH  026%=      5-min Rain = 0
KLD1 241955Z 06011KT 13/M05 A3012 RMK A01 T01331054  RH  027%=      5-min Rain = 0
KLD1 241956Z 06010KT 13/M05 A3012 RMK A01 T01341054  RH  027%=      5-min Rain = 0
KLD1 241957Z 07009KT 13/M06 A3012 RMK A01 T01331055  RH  027%=      5-min Rain = 0
KLD1 241958Z 06010KT 14/M05 A3012 RMK A01 T01361053  RH  027%=      5-min Rain = 0
KLD1 241959Z 05010KT 13/M06 A3012 RMK A01 T01341056  RH  026%=      5-min Rain = 0
KLD1 242000Z 06008KT 13/M06 A3012 RMK A01 T01321056  RH  026%=      5-min Rain = 0
KLD1 242001Z 07005KT 13/M06 A3012 RMK A01 T01301057  RH  027%=      5-min Rain = 0
KLD1 242002Z 08007KT 13/M06 A3012 RMK A01 T01291056  RH  027%=      5-min Rain = 0
KLD1 242003Z 08009G14KT 13/M06 A3012 RMK A01 T01291056  RH  027%=      5-min Rain = 0
KLD1 242004Z 09012KT 13/M05 A3012 RMK A01 T01311053  RH  027%=      5-min Rain = 0
KLD1 242005Z 07009KT 14/M05 A3012 RMK A01 T01351053  RH  027%=      5-min Rain = 0
KLD1 242006Z 08007KT 13/M05 A3012 RMK A01 T01331054  RH  027%=      5-min Rain = 0
KLD1 242007Z 08006KT 14/M05 A3012 RMK A01 T01381050  RH  027%=      5-min Rain = 0
KLD1 242008Z 11004KT 14/M05 A3012 RMK A01 T01381054  RH  026%=      5-min Rain = 0
KLD1 242009Z 06006KT 14/M06 A3012 RMK A01 T01371055  RH  026%=      5-min Rain = 0
KLD1 242010Z 07012KT 14/M05 A3012 RMK A01 T01371053  RH  026%=      5-min Rain = 0
KLD1 242011Z 07010KT 14/M06 A3012 RMK A01 T01381056  RH  026%=      5-min Rain = 0
KLD1 242012Z 09009KT 14/M06 A3012 RMK A01 T01371055  RH  026%=      5-min Rain = 0
KLD1 242013Z 11007KT 14/M06 A3012 RMK A01 T01381056  RH  026%=      5-min Rain = 0
KLD1 242014Z 13005KT 14/M06 A3011 RMK A01 T01371057  RH  025%=      5-min Rain = 0
KLD1 242015Z 11004KT 14/M06 A3011 RMK A01 T01361058  RH  026%=      5-min Rain = 0
KLD1 242016Z 10006KT 14/M06 A3011 RMK A01 T01351057  RH  026%=      5-min Rain = 0
KLD1 242017Z 09008G13KT 14/M06 A3011 RMK A01 T01361056  RH  026%=      5-min Rain = 0
KLD1 242018Z 09009KT 14/M06 A3011 RMK A01 T01381055  RH  026%=      5-min Rain = 0
KLD1 242019Z 08010KT 14/M06 A3011 RMK A01 T01391056  RH  025%=      5-min Rain = 0
KLD1 242020Z 09014KT 14/M06 A3011 RMK A01 T01401056  RH  025%=      5-min Rain = 0
KLD1 242021Z 09012KT 14/M06 A3011 RMK A01 T01401057  RH  025%=      5-min Rain = 0
KLD1 242022Z 08010KT 14/M06 A3011 RMK A01 T01391058  RH  025%=      5-min Rain = 0
KLD1 242023Z 09011KT 14/M06 A3011 RMK A01 T01371057  RH  025%=      5-min Rain = 0
KLD1 242024Z 09010KT 14/M06 A3011 RMK A01 T01391057  RH  025%=      5-min Rain = 0
KLD1 242025Z 09007KT 14/M06 A3011 RMK A01 T01371058  RH  025%=      5-min Rain = 0
KLD1 242026Z 08004KT 14/M06 A3011 RMK A01 T01361058  RH  025%=      5-min Rain = 0
KLD1 242027Z 09005KT 13/M06 A3011 RMK A01 T01341058  RH  026%=      5-min Rain = 0
KLD1 242028Z 09007KT 13/M06 A3011 RMK A01 T01341057  RH  026%=      5-min Rain = 0
KLD1 242029Z 07005KT 14/M06 A3011 RMK A01 T01351057  RH  026%=      5-min Rain = 0
KLD1 242030Z 08006KT 13/M06 A3011 RMK A01 T01341058  RH  026%=      5-min Rain = 0
KLD1 242031Z 10007KT 14/M06 A3011 RMK A01 T01351056  RH  026%=      5-min Rain = 0
KLD1 242032Z 11004KT 14/M06 A3011 RMK A01 T01361056  RH  026%=      5-min Rain = 0
KLD1 242033Z 10003KT 14/M06 A3011 RMK A01 T01351056  RH  026%=      5-min Rain = 0
KLD1 242034Z 11006KT 14/M06 A3011 RMK A01 T01361055  RH  026%=      5-min Rain = 0
KLD1 242035Z 08012KT 14/M05 A3011 RMK A01 T01381054  RH  026%=      5-min Rain = 0
KLD1 242036Z 07012KT 14/M05 A3011 RMK A01 T01411054  RH  026%=      5-min Rain = 0
KLD1 242037Z 07011KT 14/M06 A3011 RMK A01 T01401056  RH  025%=      5-min Rain = 0
KLD1 242038Z 07009KT 14/M05 A3011 RMK A01 T01401054  RH  026%=      5-min Rain = 0
KLD1 242039Z 09008KT 14/M06 A3011 RMK A01 T01391057  RH  025%=      5-min Rain = 0
KLD1 242040Z 08009KT 14/M06 A301 RMK A01 T01361057  RH  026%=      5-min Rain = 0
KLD1 242041Z 07008KT 14/M06 A301 RMK A01 T01361056  RH  026%=      5-min Rain = 0
KLD1 242042Z 09009KT 14/M06 A301 RMK A01 T01361056  RH  026%=      5-min Rain = 0
KLD1 242043Z 09009G14KT 14/M06 A301 RMK A01 T01361055  RH  026%=      5-min Rain = 0
KLD1 242044Z 09007KT 14/M06 A301 RMK A01 T01371055  RH  026%=      5-min Rain = 0
KLD1 242045Z 07007KT 14/M06 A301 RMK A01 T01371055  RH  026%=      5-min Rain = 0
KLD1 242046Z 07007KT 14/M05 A301 RMK A01 T01381054  RH  026%=      5-min Rain = 0
KLD1 242047Z 08007KT 14/M05 A301 RMK A01 T01411051  RH  026%=      5-min Rain = 0
KLD1 242048Z 11010KT 14/M05 A301 RMK A01 T01441052  RH  025%=      5-min Rain = 0
KLD1 242049Z 11008KT 14/M05 A301 RMK A01 T01431054  RH  025%=      5-min Rain = 0
KLD1 242050Z 11008KT 14/M05 A301 RMK A01 T01411054  RH  025%=      5-min Rain = 0
KLD1 242051Z 10007KT 14/M06 A301 RMK A01 T01401055  RH  026%=      5-min Rain = 0
KLD1 242052Z 09010KT 14/M05 A301 RMK A01 T01401052  RH  026%=      5-min Rain = 0
KLD1 242053Z 07011KT 14/M05 A301 RMK A01 T01431051  RH  026%=      5-min Rain = 0
KLD1 242054Z 07010KT 14/M05 A301 RMK A01 T01421054  RH  025%=      5-min Rain = 0
KLD1 242055Z 11010KT 14/M05 A301 RMK A01 T01421051  RH  026%=      5-min Rain = 0
KLD1 242056Z 12010KT 14/M05 A301 RMK A01 T01431053  RH  025%=      5-min Rain = 0
KLD1 242057Z 12006KT 14/M05 A301 RMK A01 T01401054  RH  026%=      5-min Rain = 0
KLD1 242058Z 13009KT 14/M05 A301 RMK A01 T01411051  RH  026%=      5-min Rain = 0
KLD1 242059Z 13007KT 14/M05 A301 RMK A01 T01411054  RH  025%=      5-min Rain = 0
KLD1 242100Z 13005KT 14/M05 A301 RMK A01 T01411053  RH  026%=      5-min Rain = 0
KLD1 242101Z 13008KT 14/M05 A301 RMK A01 T01411054  RH  026%=      5-min Rain = 0
KLD1 242102Z 11012KT 14/M05 A301 RMK A01 T01411052  RH  026%=      5-min Rain = 0
KLD1 242103Z 10011KT 14/M05 A301 RMK A01 T01401054  RH  026%=      5-min Rain = 0
KLD1 242104Z 11009KT 14/M05 A301 RMK A01 T01391053  RH  026%=      5-min Rain = 0
KLD1 242105Z 12005KT 14/M05 A301 RMK A01 T01391053  RH  026%=      5-min Rain = 0
KLD1 242106Z 16006KT 14/M05 A301 RMK A01 T01381053  RH  026%=      5-min Rain = 0
KLD1 242107Z 14004KT 14/M05 A301 RMK A01 T01381053  RH  026%=      5-min Rain = 0
KLD1 242108Z 13006KT 14/M05 A301 RMK A01 T01391051  RH  026%=      5-min Rain = 0
KLD1 242109Z 11009KT 14/M05 A301 RMK A01 T01421049  RH  026%=      5-min Rain = 0
KLD1 242110Z 10009KT 14/M05 A3009 RMK A01 T01431050  RH  026%=      5-min Rain = 0
KLD1 242111Z 10009KT 14/M05 A3009 RMK A01 T01441051  RH  026%=      5-min Rain = 0
KLD1 242112Z 10007KT 14/M05 A3009 RMK A01 T01421054  RH  025%=      5-min Rain = 0
KLD1 242113Z 11004KT 14/M05 A3009 RMK A01 T01401054  RH  026%=      5-min Rain = 0
KLD1 242114Z 12001KT 14/M05 A3009 RMK A01 T01391054  RH  026%=      5-min Rain = 0
KLD1 242115Z 10004KT 14/M05 A3009 RMK A01 T01391052  RH  026%=      5-min Rain = 0
KLD1 242116Z 07006KT 14/M05 A3009 RMK A01 T01411051  RH  026%=      5-min Rain = 0
KLD1 242117Z 07007KT 14/M05 A3009 RMK A01 T01411050  RH  026%=      5-min Rain = 0
KLD1 242118Z 06008KT 14/M05 A3009 RMK A01 T01431049  RH  026%=      5-min Rain = 0
KLD1 242119Z 07010KT 15/M05 A3009 RMK A01 T01461048  RH  026%=      5-min Rain = 0
KLD1 242120Z 08006KT 15/M05 A3009 RMK A01 T01451050  RH  026%=      5-min Rain = 0
KLD1 242121Z 10006KT 15/M05 A3009 RMK A01 T01451048  RH  026%=      5-min Rain = 0
KLD1 242122Z 09006KT 15/M05 A3009 RMK A01 T01471047  RH  026%=      5-min Rain = 0
KLD1 242123Z 11006KT 15/M05 A3009 RMK A01 T01471047  RH  026%=      5-min Rain = 0
KLD1 242124Z 13008KT 15/M05 A3009 RMK A01 T01481048  RH  025%=      5-min Rain = 0
KLD1 242125Z 13006KT 15/M05 A3009 RMK A01 T01471051  RH  025%=      5-min Rain = 0
KLD1 242126Z 15006KT 15/M05 A3009 RMK A01 T01481048  RH  025%=      5-min Rain = 0
KLD1 242127Z 11006G11KT 15/M05 A3009 RMK A01 T01491050  RH  025%=      5-min Rain = 0
KLD1 242128Z 11006KT 15/M05 A3009 RMK A01 T01491048  RH  025%=      5-min Rain = 0
KLD1 242129Z 08008KT 15/M05 A3009 RMK A01 T01501048  RH  025%=      5-min Rain = 0
KLD1 242130Z 09009KT 15/M05 A3009 RMK A01 T01481051  RH  025%=      5-min Rain = 0
KLD1 242131Z 09006KT 15/M05 A3009 RMK A01 T01451052  RH  025%=      5-min Rain = 0
KLD1 242132Z 10005KT 14/M05 A3009 RMK A01 T01441050  RH  026%=      5-min Rain = 0
KLD1 242133Z 09009G15KT 15/M05 A3009 RMK A01 T01461049  RH  026%=      5-min Rain = 0
KLD1 242134Z 11009KT 15/M05 A3009 RMK A01 T01481049  RH  025%=      5-min Rain = 0
KLD1 242135Z 12007KT 15/M05 A3009 RMK A01 T01471051  RH  025%=      5-min Rain = 0
KLD1 242136Z 12006KT 15/M05 A3009 RMK A01 T01471050  RH  025%=      5-min Rain = 0
KLD1 242137Z 12004KT 15/M05 A3009 RMK A01 T01471052  RH  025%=      5-min Rain = 0
KLD1 242138Z 12002KT 14/M05 A3009 RMK A01 T01441053  RH  025%=      5-min Rain = 0
KLD1 242139Z 11005G10KT 14/M05 A3009 RMK A01 T01441050  RH  026%=      5-min Rain = 0
KLD1 242140Z 10004KT 15/M05 A3009 RMK A01 T01461050  RH  025%=      5-min Rain = 0
KLD1 242141Z 09005KT 15/M05 A3009 RMK A01 T01461051  RH  025%=      5-min Rain = 0
KLD1 242142Z 09006KT 15/M05 A3009 RMK A01 T01471049  RH  025%=      5-min Rain = 0
KLD1 242143Z 10007KT 15/M05 A3009 RMK A01 T01491048  RH  025%=      5-min Rain = 0
KLD1 242144Z 09007KT 15/M05 A3009 RMK A01 T01501049  RH  025%=      5-min Rain = 0
KLD1 242145Z 08007KT 15/M05 A3009 RMK A01 T01501051  RH  025%=      5-min Rain = 0
KLD1 242146Z 09007KT 15/M05 A3009 RMK A01 T01491051  RH  025%=      5-min Rain = 0
KLD1 242147Z 10006KT 15/M05 A3009 RMK A01 T01491052  RH  025%=      5-min Rain = 0
KLD1 242148Z 08008KT 15/M05 A3009 RMK A01 T01481052  RH  025%=      5-min Rain = 0
KLD1 242149Z 09009KT 15/M05 A3009 RMK A01 T01481052  RH  025%=      5-min Rain = 0
KLD1 242150Z 09010KT 15/M05 A3009 RMK A01 T01471052  RH  025%=      5-min Rain = 0
KLD1 242151Z 08008KT 15/M05 A3009 RMK A01 T01471052  RH  025%=      5-min Rain = 0
KLD1 242152Z 09008KT 15/M05 A3009 RMK A01 T01461053  RH  025%=      5-min Rain = 0
KLD1 242153Z 10007KT 15/M05 A3009 RMK A01 T01461052  RH  025%=      5-min Rain = 0
KLD1 242154Z 13006KT 15/M05 A301 RMK A01 T01481049  RH  025%=      5-min Rain = 0
KLD1 242155Z 12007KT 15/M05 A3009 RMK A01 T01501051  RH  025%=      5-min Rain = 0
KLD1 242156Z 11008KT 15/M05 A3009 RMK A01 T01491052  RH  025%=      5-min Rain = 0
KLD1 242157Z 13007KT 15/M05 A3009 RMK A01 T01481051  RH  025%=      5-min Rain = 0
KLD1 242158Z 14006KT 15/M05 A3009 RMK A01 T01481051  RH  025%=      5-min Rain = 0
KLD1 242159Z 14007KT 15/M05 A3009 RMK A01 T01481052  RH  025%=      5-min Rain = 0
KLD1 242200Z 12008G13KT 15/M05 A3009 RMK A01 T01491050  RH  025%=      5-min Rain = 0
KLD1 242201Z 12010KT 15/M05 A3009 RMK A01 T01501050  RH  025%=      5-min Rain = 0
KLD1 242202Z 11009KT 15/M05 A3009 RMK A01 T01521048  RH  025%=      5-min Rain = 0
KLD1 242203Z 10009KT 15/M05 A3009 RMK A01 T01531050  RH  024%=      5-min Rain = 0
KLD1 242204Z 11010KT 15/M05 A3009 RMK A01 T01511052  RH  024%=      5-min Rain = 0
KLD1 242205Z 08010KT 15/M05 A3009 RMK A01 T01501050  RH  025%=      5-min Rain = 0
KLD1 242206Z 08008KT 15/M05 A3009 RMK A01 T01501051  RH  025%=      5-min Rain = 0
KLD1 242207Z 09007KT 15/M05 A3009 RMK A01 T01491051  RH  025%=      5-min Rain = 0
KLD1 242208Z 10008KT 15/M05 A3009 RMK A01 T01471052  RH  025%=      5-min Rain = 0
KLD1 242209Z 08008KT 15/M05 A3008 RMK A01 T01481050  RH  025%=      5-min Rain = 0
KLD1 242210Z 08007KT 15/M05 A3008 RMK A01 T01481051  RH  025%=      5-min Rain = 0
KLD1 242211Z 11009KT 15/M05 A3008 RMK A01 T01481048  RH  025%=      5-min Rain = 0
KLD1 242212Z 13011KT 15/M05 A3008 RMK A01 T01511048  RH  025%=      5-min Rain = 0
KLD1 242213Z 13011KT 15/M05 A3008 RMK A01 T01511049  RH  025%=      5-min Rain = 0
KLD1 242214Z 12009KT 15/M05 A3008 RMK A01 T01501050  RH  025%=      5-min Rain = 0
KLD1 242215Z 12010KT 15/M05 A3008 RMK A01 T01491049  RH  025%=      5-min Rain = 0
KLD1 242216Z 11010KT 15/M05 A3008 RMK A01 T01501049  RH  025%=      5-min Rain = 0
KLD1 242217Z 13010KT 15/M05 A3008 RMK A01 T01491049  RH  025%=      5-min Rain = 0
KLD1 242218Z 13010KT 15/M05 A3008 RMK A01 T01511047  RH  025%=      5-min Rain = 0
KLD1 242219Z 13008KT 15/M05 A3008 RMK A01 T01531047  RH  025%=      5-min Rain = 0
KLD1 242220Z 13008KT 15/M05 A3008 RMK A01 T01521049  RH  025%=      5-min Rain = 0
KLD1 242221Z 13009KT 15/M05 A3008 RMK A01 T01511049  RH  025%=      5-min Rain = 0
KLD1 242222Z 10011KT 15/M05 A3008 RMK A01 T01501048  RH  025%=      5-min Rain = 0
KLD1 242223Z 10013KT 15/M05 A3008 RMK A01 T01491049  RH  025%=      5-min Rain = 0
KLD1 242224Z 10012KT 15/M05 A3008 RMK A01 T01491048  RH  025%=      5-min Rain = 0
KLD1 242225Z 11008KT 15/M05 A3008 RMK A01 T01491049  RH  025%=      5-min Rain = 0
KLD1 242226Z 10010KT 15/M05 A3008 RMK A01 T01491049  RH  025%=      5-min Rain = 0
KLD1 242227Z 11009KT 15/M05 A3008 RMK A01 T01471049  RH  025%=      5-min Rain = 0
KLD1 242228Z 11012KT 15/M05 A3008 RMK A01 T01471048  RH  026%=      5-min Rain = 0
KLD1 242229Z 12010KT 15/M05 A3008 RMK A01 T01511045  RH  026%=      5-min Rain = 0
KLD1 242230Z 11011KT 15/M05 A3008 RMK A01 T01521047  RH  025%=      5-min Rain = 0
KLD1 242231Z 11012KT 15/M05 A3008 RMK A01 T01511048  RH  025%=      5-min Rain = 0
KLD1 242232Z 11008KT 15/M05 A3008 RMK A01 T01491049  RH  025%=      5-min Rain = 0
KLD1 242233Z 11011KT 15/M05 A3008 RMK A01 T01471049  RH  025%=      5-min Rain = 0
KLD1 242234Z 12010KT 15/M05 A3008 RMK A01 T01481048  RH  026%=      5-min Rain = 0
KLD1 242235Z 12013KT 15/M05 A3008 RMK A01 T01491047  RH  026%=      5-min Rain = 0
KLD1 242236Z 12009KT 15/M05 A3008 RMK A01 T01491049  RH  025%=      5-min Rain = 0
KLD1 242237Z 11009KT 15/M05 A3008 RMK A01 T01471049  RH  025%=      5-min Rain = 0
KLD1 242238Z 10012KT 15/M05 A3008 RMK A01 T01481047  RH  026%=      5-min Rain = 0
KLD1 242239Z 12010G15KT 15/M05 A3008 RMK A01 T01511046  RH  025%=      5-min Rain = 0
KLD1 242240Z 12009KT 15/M05 A3008 RMK A01 T01541045  RH  025%=      5-min Rain = 0
KLD1 242241Z 11009KT 15/M05 A3008 RMK A01 T01541047  RH  025%=      5-min Rain = 0
KLD1 242242Z 11011KT 15/M05 A3008 RMK A01 T01531047  RH  025%=      5-min Rain = 0
KLD1 242243Z 11010KT 15/M05 A3008 RMK A01 T01531047  RH  025%=      5-min Rain = 0
KLD1 242244Z 10012KT 15/M05 A3008 RMK A01 T01531047  RH  025%=      5-min Rain = 0
KLD1 242245Z 10011KT 15/M05 A3008 RMK A01 T01511050  RH  025%=      5-min Rain = 0
KLD1 242246Z 11010KT 15/M05 A3008 RMK A01 T01491049  RH  025%=      5-min Rain = 0
KLD1 242247Z 12009KT 15/M05 A3008 RMK A01 T01481048  RH  025%=      5-min Rain = 0
KLD1 242248Z 11010KT 15/M05 A3008 RMK A01 T01491047  RH  025%=      5-min Rain = 0
KLD1 242249Z 11009KT 15/M05 A3008 RMK A01 T01501047  RH  025%=      5-min Rain = 0
KLD1 242250Z 10009G14KT 15/M05 A3008 RMK A01 T01501048  RH  025%=      5-min Rain = 0
KLD1 242251Z 13009G15KT 15/M05 A3008 RMK A01 T01501047  RH  025%=      5-min Rain = 0
KLD1 242252Z 13007KT 15/M05 A3008 RMK A01 T01511047  RH  025%=      5-min Rain = 0
KLD1 242253Z 12007KT 15/M05 A3008 RMK A01 T01511048  RH  025%=      5-min Rain = 0
KLD1 242254Z 13009KT 15/M05 A3008 RMK A01 T01501047  RH  025%=      5-min Rain = 0
KLD1 242255Z 13007KT 15/M05 A3008 RMK A01 T01501049  RH  025%=      5-min Rain = 0
KLD1 242256Z 13006KT 15/M05 A3008 RMK A01 T01481050  RH  025%=      5-min Rain = 0
KLD1 242257Z 11007KT 15/M05 A3009 RMK A01 T01481049  RH  025%=      5-min Rain = 0
KLD1 242258Z 11007KT 15/M05 A3009 RMK A01 T01471048  RH  025%=      5-min Rain = 0
KLD1 242259Z 10008KT 15/M05 A3008 RMK A01 T01471048  RH  025%=      5-min Rain = 0
KLD1 242300Z 11011KT 15/M05 A3008 RMK A01 T01471048  RH  026%=      5-min Rain = 0
KLD1 242301Z 13009KT 15/M05 A3008 RMK A01 T01471048  RH  026%=      5-min Rain = 0
KLD1 242302Z 15009KT 15/M05 A3008 RMK A01 T01471047  RH  026%=      5-min Rain = 0
KLD1 242303Z 14010KT 15/M05 A3008 RMK A01 T01471048  RH  026%=      5-min Rain = 0
KLD1 242304Z 15008KT 15/M05 A3008 RMK A01 T01471049  RH  025%=      5-min Rain = 0
KLD1 242305Z 13006KT 15/M05 A3008 RMK A01 T01481048  RH  025%=      5-min Rain = 0
KLD1 242306Z 13007KT 15/M05 A3008 RMK A01 T01491047  RH  025%=      5-min Rain = 0
KLD1 242307Z 12009KT 15/M05 A3008 RMK A01 T01491048  RH  025%=      5-min Rain = 0
KLD1 242308Z 13009KT 15/M05 A3008 RMK A01 T01481047  RH  026%=      5-min Rain = 0
KLD1 242309Z 13009KT 15/M05 A3008 RMK A01 T01481047  RH  026%=      5-min Rain = 0
KLD1 242310Z 13009KT 15/M05 A3008 RMK A01 T01491045  RH  026%=      5-min Rain = 0
KLD1 242311Z 12010KT 15/M05 A3008 RMK A01 T01511045  RH  026%=      5-min Rain = 0
KLD1 242312Z 12009KT 15/M05 A3008 RMK A01 T01491046  RH  026%=      5-min Rain = 0
KLD1 242313Z 12010KT 15/M05 A3008 RMK A01 T01491047  RH  026%=      5-min Rain = 0
KLD1 242314Z 14009KT 15/M05 A3008 RMK A01 T01481046  RH  026%=      5-min Rain = 0
KLD1 242315Z 14011KT 15/M05 A3008 RMK A01 T01481046  RH  026%=      5-min Rain = 0
KLD1 242316Z 14009G14KT 15/M05 A3008 RMK A01 T01471047  RH  026%=      5-min Rain = 0
KLD1 242317Z 14010KT 15/M05 A3008 RMK A01 T01471047  RH  026%=      5-min Rain = 0
KLD1 242318Z 13012KT 15/M05 A3008 RMK A01 T01471047  RH  026%=      5-min Rain = 0
KLD1 242319Z 13010KT 15/M05 A3008 RMK A01 T01471047  RH  026%=      5-min Rain = 0
KLD1 242320Z 12010KT 15/M05 A3008 RMK A01 T01471047  RH  026%=      5-min Rain = 0
KLD1 242321Z 11009KT 15/M05 A3008 RMK A01 T01471047  RH  026%=      5-min Rain = 0
KLD1 242322Z 13007KT 15/M05 A3008 RMK A01 T01481047  RH  026%=      5-min Rain = 0
KLD1 242323Z 12008KT 15/M05 A3008 RMK A01 T01481046  RH  026%=      5-min Rain = 0
KLD1 242324Z 11008KT 15/M05 A3008 RMK A01 T01481047  RH  026%=      5-min Rain = 0
KLD1 242325Z 12007KT 15/M05 A3008 RMK A01 T01471048  RH  026%=      5-min Rain = 0
KLD1 242326Z 11007KT 15/M05 A3008 RMK A01 T01461048  RH  026%=      5-min Rain = 0
KLD1 242327Z 10010KT 15/M05 A3008 RMK A01 T01451048  RH  026%=      5-min Rain = 0
KLD1 242328Z 12011KT 15/M05 A3008 RMK A01 T01451048  RH  026%=      5-min Rain = 0
KLD1 242329Z 14009KT 15/M05 A3008 RMK A01 T01451048  RH  026%=      5-min Rain = 0
KLD1 242330Z 13010KT 15/M05 A3008 RMK A01 T01461047  RH  026%=      5-min Rain = 0
KLD1 242331Z 14009KT 15/M05 A3008 RMK A01 T01461047  RH  026%=      5-min Rain = 0
KLD1 242332Z 12009KT 15/M05 A3008 RMK A01 T01451047  RH  026%=      5-min Rain = 0
KLD1 242333Z 11010KT 15/M05 A3008 RMK A01 T01451047  RH  026%=      5-min Rain = 0
KLD1 242334Z 12008KT 14/M05 A3008 RMK A01 T01441048  RH  026%=      5-min Rain = 0
KLD1 242335Z 12008KT 14/M05 A3008 RMK A01 T01441048  RH  026%=      5-min Rain = 0
KLD1 242336Z 12005KT 14/M05 A3008 RMK A01 T01441047  RH  026%=      5-min Rain = 0
KLD1 242337Z 12007KT 14/M05 A3008 RMK A01 T01441047  RH  026%=      5-min Rain = 0
KLD1 242338Z 12009KT 14/M05 A3008 RMK A01 T01441047  RH  026%=      5-min Rain = 0
KLD1 242339Z 12009KT 14/M05 A3008 RMK A01 T01441047  RH  026%=      5-min Rain = 0
KLD1 242340Z 13009KT 14/M05 A3008 RMK A01 T01441047  RH  026%=      5-min Rain = 0
KLD1 242341Z 12008KT 14/M05 A3008 RMK A01 T01441047  RH  026%=      5-min Rain = 0
KLD1 242342Z 13008KT 14/M05 A3008 RMK A01 T01441047  RH  026%=      5-min Rain = 0
KLD1 242343Z 13008KT 15/M05 A3008 RMK A01 T01451046  RH  026%=      5-min Rain = 0
KLD1 242344Z 12010KT 15/M05 A3008 RMK A01 T01451046  RH  026%=      5-min Rain = 0
KLD1 242345Z 12009KT 15/M05 A3008 RMK A01 T01451047  RH  026%=      5-min Rain = 0
KLD1 242346Z 11009KT 14/M05 A3008 RMK A01 T01441047  RH  026%=      5-min Rain = 0
KLD1 242347Z 11009KT 14/M05 A3008 RMK A01 T01441047  RH  026%=      5-min Rain = 0
KLD1 242348Z 11009KT 14/M05 A3008 RMK A01 T01431047  RH  026%=      5-min Rain = 0
KLD1 242349Z 11010KT 14/M05 A3008 RMK A01 T01421047  RH  027%=      5-min Rain = 0
KLD1 242350Z 11010KT 14/M05 A3008 RMK A01 T01421046  RH  027%=      5-min Rain = 0
KLD1 242351Z 11010KT 14/M05 A3008 RMK A01 T01421047  RH  027%=      5-min Rain = 0
KLD1 242352Z 11010KT 14/M05 A3008 RMK A01 T01421048  RH  027%=      5-min Rain = 0
KLD1 242353Z 11009KT 14/M05 A3008 RMK A01 T01411047  RH  027%=      5-min Rain = 0
KLD1 242354Z 11009KT 14/M05 A3008 RMK A01 T01411047  RH  027%=      5-min Rain = 0
KLD1 242355Z 11008KT 14/M05 A3009 RMK A01 T01411047  RH  027%=      5-min Rain = 0
KLD1 242356Z 11009KT 14/M05 A3009 RMK A01 T01411047  RH  027%=      5-min Rain = 0
KLD1 242357Z 11010KT 14/M05 A3009 RMK A01 T01401048  RH  027%=      5-min Rain = 0
KLD1 242358Z 12009KT 14/M05 A3009 RMK A01 T01401048  RH  027%=      5-min Rain = 0
KLD1 242359Z 12008KT 14/M05 A3009 RMK A01 T01401047  RH  027%=      5-min Rain = 0
KLD1 250000Z 12008KT 14/M05 A3009 RMK A01 T01411047  RH  027%=      5-min Rain = 0
KLD1 250001Z 12008KT 14/M05 A3009 RMK A01 T01401047  RH  027%=      5-min Rain = 0
KLD1 250002Z 13008KT 14/M05 A3009 RMK A01 T01401047  RH  027%=      5-min Rain = 0
KLD1 250003Z 13009KT 14/M05 A3009 RMK A01 T01401047  RH  027%=      5-min Rain = 0
KLD1 250004Z 12007KT 14/M05 A3009 RMK A01 T01391047  RH  027%=      5-min Rain = 0
KLD1 250005Z 12008KT 14/M05 A3009 RMK A01 T01391047  RH  027%=      5-min Rain = 0
KLD1 250006Z 12007KT 14/M05 A3009 RMK A01 T01391047  RH  027%=      5-min Rain = 0
KLD1 250007Z 12007KT 14/M05 A3009 RMK A01 T01391047  RH  027%=      5-min Rain = 0
KLD1 250008Z 11008KT 14/M05 A3009 RMK A01 T01391048  RH  027%=      5-min Rain = 0
KLD1 250009Z 11008KT 14/M05 A3009 RMK A01 T01381047  RH  027%=      5-min Rain = 0
KLD1 250010Z 11009KT 14/M05 A3009 RMK A01 T01381047  RH  027%=      5-min Rain = 0
KLD1 250011Z 11010KT 14/M05 A3009 RMK A01 T01371047  RH  027%=      5-min Rain = 0
KLD1 250012Z 10010KT 14/M05 A3009 RMK A01 T01371047  RH  028%=      5-min Rain = 0
KLD1 250013Z 10010KT 14/M05 A3009 RMK A01 T01361047  RH  028%=      5-min Rain = 0
KLD1 250014Z 10011KT 14/M05 A3009 RMK A01 T01351047  RH  028%=      5-min Rain = 0
KLD1 250015Z 10009KT 14/M05 A3009 RMK A01 T01351047  RH  028%=      5-min Rain = 0
KLD1 250016Z 11009KT 13/M05 A3009 RMK A01 T01341047  RH  028%=      5-min Rain = 0
KLD1 250017Z 11009KT 13/M05 A3009 RMK A01 T01331047  RH  028%=      5-min Rain = 0
KLD1 250018Z 11008KT 13/M05 A3009 RMK A01 T01331046  RH  028%=      5-min Rain = 0
KLD1 250019Z 10009KT 13/M05 A3009 RMK A01 T01321046  RH  029%=      5-min Rain = 0
KLD1 250020Z 11010KT 13/M05 A3009 RMK A01 T01321046  RH  029%=      5-min Rain = 0
KLD1 250021Z 11009KT 13/M05 A3009 RMK A01 T01321046  RH  029%=      5-min Rain = 0
KLD1 250022Z 11009KT 13/M05 A3009 RMK A01 T01311046  RH  029%=      5-min Rain = 0
KLD1 250023Z 11008KT 13/M05 A3009 RMK A01 T01301046  RH  029%=      5-min Rain = 0
KLD1 250024Z 11008KT 13/M05 A3009 RMK A01 T01291046  RH  029%=      5-min Rain = 0
KLD1 250025Z 11008KT 13/M05 A301 RMK A01 T01281046  RH  029%=      5-min Rain = 0
KLD1 250026Z 10008KT 13/M05 A301 RMK A01 T01261046  RH  030%=      5-min Rain = 0
KLD1 250027Z 10008KT 13/M05 A301 RMK A01 T01251046  RH  030%=      5-min Rain = 0
KLD1 250028Z 11008KT 12/M05 A3009 RMK A01 T01241046  RH  030%=      5-min Rain = 0
KLD1 250029Z 11008KT 12/M05 A3009 RMK A01 T01231046  RH  030%=      5-min Rain = 0
KLD1 250030Z 10008KT 12/M05 A3009 RMK A01 T01231046  RH  030%=      5-min Rain = 0
KLD1 250031Z 10008KT 12/M05 A3009 RMK A01 T01221046  RH  031%=      5-min Rain = 0
KLD1 250032Z 10008KT 12/M05 A3009 RMK A01 T01221046  RH  031%=      5-min Rain = 0
KLD1 250033Z 10008KT 12/M05 A301 RMK A01 T01211046  RH  031%=      5-min Rain = 0
KLD1 250034Z 10008KT 12/M05 A301 RMK A01 T01201047  RH  031%=      5-min Rain = 0
KLD1 250035Z 10008KT 12/M05 A301 RMK A01 T01191047  RH  031%=      5-min Rain = 0
KLD1 250036Z 10008KT 12/M05 A301 RMK A01 T01181048  RH  031%=      5-min Rain = 0
KLD1 250037Z 09008KT 12/M05 A3009 RMK A01 T01161049  RH  031%=      5-min Rain = 0
KLD1 250038Z 10008KT 12/M05 A3009 RMK A01 T01151049  RH  031%=      5-min Rain = 0
KLD1 250039Z 10008KT 11/M05 A301 RMK A01 T01141049  RH  032%=      5-min Rain = 0
KLD1 250040Z 10008KT 11/M05 A301 RMK A01 T01131049  RH  032%=      5-min Rain = 0
KLD1 250041Z 10007KT 11/M05 A301 RMK A01 T01121049  RH  032%=      5-min Rain = 0
KLD1 250042Z 10007KT 11/M05 A301 RMK A01 T01111049  RH  032%=      5-min Rain = 0
KLD1 250043Z 10007KT 11/M05 A301 RMK A01 T01101048  RH  033%=      5-min Rain = 0
KLD1 250044Z 10007KT 11/M05 A301 RMK A01 T01091048  RH  033%=      5-min Rain = 0
KLD1 250045Z 11008KT 11/M05 A301 RMK A01 T01081048  RH  033%=      5-min Rain = 0
KLD1 250046Z 10007KT 11/M05 A301 RMK A01 T01071048  RH  033%=      5-min Rain = 0
KLD1 250047Z 10008KT 11/M05 A301 RMK A01 T01061048  RH  034%=      5-min Rain = 0
KLD1 250048Z 10008KT 11/M05 A301 RMK A01 T01051048  RH  034%=      5-min Rain = 0
KLD1 250049Z 10007KT 11/M05 A301 RMK A01 T01051048  RH  034%=      5-min Rain = 0
KLD1 250050Z 10007KT 10/M05 A301 RMK A01 T01041048  RH  034%=      5-min Rain = 0
KLD1 250051Z 10007KT 10/M05 A301 RMK A01 T01041048  RH  034%=      5-min Rain = 0
KLD1 250052Z 10008KT 10/M05 A301 RMK A01 T01031048  RH  034%=      5-min Rain = 0
KLD1 250053Z 10008KT 10/M05 A301 RMK A01 T01021048  RH  034%=      5-min Rain = 0
KLD1 250054Z 10008KT 10/M05 A301 RMK A01 T01021048  RH  035%=      5-min Rain = 0
KLD1 250055Z 10008KT 10/M05 A301 RMK A01 T01011048  RH  035%=      5-min Rain = 0
KLD1 250056Z 10008KT 10/M05 A3011 RMK A01 T01001048  RH  035%=      5-min Rain = 0
KLD1 250057Z 10008KT 10/M05 A3011 RMK A01 T01001048  RH  035%=      5-min Rain = 0
KLD1 250058Z 10008KT 10/M05 A3011 RMK A01 T01001048  RH  035%=      5-min Rain = 0
KLD1 250059Z 10008KT 10/M05 A3011 RMK A01 T01001048  RH  035%=      5-min Rain = 0
KLD1 250100Z 10008KT 10/M05 A3011 RMK A01 T01001048  RH  035%=      5-min Rain = 0
KLD1 250101Z 10008KT 10/M05 A3011 RMK A01 T00991048  RH  035%=      5-min Rain = 0
KLD1 250102Z 10007KT 10/M05 A3011 RMK A01 T00981049  RH  035%=      5-min Rain = 0
KLD1 250103Z 10007KT 10/M05 A3011 RMK A01 T00971049  RH  035%=      5-min Rain = 0
KLD1 250104Z 10007KT 10/M05 A3011 RMK A01 T00961049  RH  036%=      5-min Rain = 0
KLD1 250105Z 10007KT 10/M05 A3011 RMK A01 T00951049  RH  036%=      5-min Rain = 0
KLD1 250106Z 10007KT 09/M05 A3011 RMK A01 T00941049  RH  036%=      5-min Rain = 0
KLD1 250107Z 10007KT 09/M05 A3011 RMK A01 T00931050  RH  036%=      5-min Rain = 0
KLD1 250108Z 10008KT 09/M05 A3011 RMK A01 T00921051  RH  036%=      5-min Rain = 0
KLD1 250109Z 10007KT 09/M05 A3011 RMK A01 T00911051  RH  036%=      5-min Rain = 0
KLD1 250110Z 10007KT 09/M05 A3011 RMK A01 T00911051  RH  036%=      5-min Rain = 0
KLD1 250111Z 09007KT 09/M05 A3012 RMK A01 T00901051  RH  036%=      5-min Rain = 0
KLD1 250112Z 09007KT 09/M05 A3012 RMK A01 T00891051  RH  037%=      5-min Rain = 0
KLD1 250113Z 09007KT 09/M05 A3012 RMK A01 T00891051  RH  037%=      5-min Rain = 0
KLD1 250114Z 09007KT 09/M05 A3012 RMK A01 T00881051  RH  037%=      5-min Rain = 0
KLD1 250115Z 09007KT 09/M05 A3012 RMK A01 T00871052  RH  037%=      5-min Rain = 0
KLD1 250116Z 09007KT 09/M05 A3011 RMK A01 T00861052  RH  037%=      5-min Rain = 0
KLD1 250117Z 09007KT 09/M05 A3011 RMK A01 T00851052  RH  037%=      5-min Rain = 0
KLD1 250118Z 09007KT 08/M05 A3011 RMK A01 T00841052  RH  038%=      5-min Rain = 0
KLD1 250119Z 09007KT 08/M05 A3012 RMK A01 T00841053  RH  038%=      5-min Rain = 0
KLD1 250120Z 09007KT 08/M05 A3012 RMK A01 T00831053  RH  038%=      5-min Rain = 0
KLD1 250121Z 09007KT 08/M05 A3012 RMK A01 T00821053  RH  038%=      5-min Rain = 0
KLD1 250122Z 09007KT 08/M05 A3012 RMK A01 T00821054  RH  038%=      5-min Rain = 0
KLD1 250123Z 09007KT 08/M05 A3012 RMK A01 T00811054  RH  038%=      5-min Rain = 0
KLD1 250124Z 09007KT 08/M05 A3012 RMK A01 T00801054  RH  038%=      5-min Rain = 0
KLD1 250125Z 09007KT 08/M05 A3012 RMK A01 T00801054  RH  038%=      5-min Rain = 0
KLD1 250126Z 09007KT 08/M05 A3012 RMK A01 T00791054  RH  038%=      5-min Rain = 0
KLD1 250127Z 09007KT 08/M06 A3012 RMK A01 T00791055  RH  038%=      5-min Rain = 0
KLD1 250128Z 09007KT 08/M06 A3012 RMK A01 T00791055  RH  038%=      5-min Rain = 0
KLD1 250129Z 09007KT 08/M06 A3012 RMK A01 T00791055  RH  038%=      5-min Rain = 0
KLD1 250130Z 09007KT 08/M06 A3012 RMK A01 T00791055  RH  038%=      5-min Rain = 0
KLD1 250131Z 09007KT 08/M06 A3012 RMK A01 T00781055  RH  038%=      5-min Rain = 0
KLD1 250132Z 09007KT 08/M06 A3012 RMK A01 T00781055  RH  039%=      5-min Rain = 0
KLD1 250133Z 09007KT 08/M06 A3012 RMK A01 T00771055  RH  039%=      5-min Rain = 0
KLD1 250134Z 09007KT 08/M05 A3012 RMK A01 T00771054  RH  039%=      5-min Rain = 0
KLD1 250135Z 09007KT 08/M05 A3012 RMK A01 T00761054  RH  039%=      5-min Rain = 0
KLD1 250136Z 09006KT 08/M05 A3012 RMK A01 T00761054  RH  039%=      5-min Rain = 0
KLD1 250137Z 09006KT 08/M05 A3012 RMK A01 T00761054  RH  039%=      5-min Rain = 0
KLD1 250138Z 09006KT 08/M05 A3013 RMK A01 T00761054  RH  039%=      5-min Rain = 0
KLD1 250139Z 09007KT 08/M06 A3013 RMK A01 T00761055  RH  039%=      5-min Rain = 0
KLD1 250140Z 09007KT 08/M05 A3013 RMK A01 T00751054  RH  039%=      5-min Rain = 0
KLD1 250141Z 09007KT 08/M05 A3013 RMK A01 T00751054  RH  039%=      5-min Rain = 0
KLD1 250142Z 09007KT 07/M06 A3013 RMK A01 T00741055  RH  039%=      5-min Rain = 0
KLD1 250143Z 09007KT 07/M06 A3013 RMK A01 T00731055  RH  039%=      5-min Rain = 0
KLD1 250144Z 09007KT 07/M06 A3013 RMK A01 T00731056  RH  040%=      5-min Rain = 0
KLD1 250145Z 09007KT 07/M06 A3013 RMK A01 T00721056  RH  040%=      5-min Rain = 0
KLD1 250146Z 09008KT 07/M06 A3013 RMK A01 T00721055  RH  040%=      5-min Rain = 0
KLD1 250147Z 09008KT 07/M06 A3013 RMK A01 T00721056  RH  040%=      5-min Rain = 0
KLD1 250148Z 09008KT 07/M06 A3013 RMK A01 T00711056  RH  040%=      5-min Rain = 0
KLD1 250149Z 09008KT 07/M06 A3013 RMK A01 T00711056  RH  040%=      5-min Rain = 0
KLD1 250150Z 09008KT 07/M06 A3013 RMK A01 T00701056  RH  040%=      5-min Rain = 0
KLD1 250151Z 09008KT 07/M06 A3013 RMK A01 T00701056  RH  040%=      5-min Rain = 0
KLD1 250152Z 09008KT 07/M06 A3013 RMK A01 T00691056  RH  040%=      5-min Rain = 0
KLD1 250153Z 09008KT 07/M06 A3013 RMK A01 T00681056  RH  041%=      5-min Rain = 0
KLD1 250154Z 09007KT 07/M06 A3013 RMK A01 T00681056  RH  041%=      5-min Rain = 0
KLD1 250155Z 09007KT 07/M06 A3013 RMK A01 T00671056  RH  041%=      5-min Rain = 0
KLD1 250156Z 09007KT 07/M06 A3013 RMK A01 T00671056  RH  041%=      5-min Rain = 0
KLD1 250157Z 09007KT 07/M06 A3013 RMK A01 T00661056  RH  041%=      5-min Rain = 0
KLD1 250158Z 09007KT 07/M06 A3013 RMK A01 T00651056  RH  042%=      5-min Rain = 0
KLD1 250159Z 09007KT 07/M06 A3013 RMK A01 T00651056  RH  042%=      5-min Rain = 0
KLD1 250200Z 09007KT 07/M06 A3013 RMK A01 T00651055  RH  042%=      5-min Rain = 0
KLD1 250201Z 09008KT 07/M06 A3013 RMK A01 T00651055  RH  042%=      5-min Rain = 0
KLD1 250202Z 09008KT 06/M06 A3013 RMK A01 T00641055  RH  042%=      5-min Rain = 0
KLD1 250203Z 09008KT 06/M06 A3013 RMK A01 T00641056  RH  042%=      5-min Rain = 0
KLD1 250204Z 09008KT 06/M06 A3013 RMK A01 T00641056  RH  042%=      5-min Rain = 0
KLD1 250205Z 09008KT 06/M06 A3013 RMK A01 T00641056  RH  042%=      5-min Rain = 0
KLD1 250206Z 09008KT 06/M06 A3013 RMK A01 T00641056  RH  042%=      5-min Rain = 0
KLD1 250207Z 09008KT 06/M06 A3013 RMK A01 T00641056  RH  042%=      5-min Rain = 0
KLD1 250208Z 09008KT 06/M06 A3013 RMK A01 T00641056  RH  042%=      5-min Rain = 0
KLD1 250209Z 10008KT 06/M06 A3013 RMK A01 T00641055  RH  042%=      5-min Rain = 0
KLD1 250210Z 10008KT 06/M06 A3013 RMK A01 T00641055  RH  042%=      5-min Rain = 0
KLD1 250211Z 09008KT 06/M06 A3013 RMK A01 T00641055  RH  042%=      5-min Rain = 0
KLD1 250212Z 09008KT 06/M05 A3013 RMK A01 T00641054  RH  042%=      5-min Rain = 0
KLD1 250213Z 09008KT 06/M05 A3013 RMK A01 T00641054  RH  042%=      5-min Rain = 0
KLD1 250214Z 09009KT 06/M05 A3013 RMK A01 T00641054  RH  042%=      5-min Rain = 0
KLD1 250215Z 09009KT 07/M06 A3013 RMK A01 T00651055  RH  042%=      5-min Rain = 0
KLD1 250216Z 09009KT 07/M06 A3013 RMK A01 T00661055  RH  042%=      5-min Rain = 0
KLD1 250217Z 09009KT 07/M06 A3013 RMK A01 T00671055  RH  041%=      5-min Rain = 0
KLD1 250218Z 09010KT 07/M06 A3013 RMK A01 T00681055  RH  041%=      5-min Rain = 0
KLD1 250219Z 09010KT 07/M05 A3013 RMK A01 T00691054  RH  041%=      5-min Rain = 0
KLD1 250220Z 09010KT 07/M05 A3013 RMK A01 T00701054  RH  041%=      5-min Rain = 0
KLD1 250221Z 09010KT 07/M05 A3013 RMK A01 T00711054  RH  041%=      5-min Rain = 0
KLD1 250222Z 09010KT 07/M05 A3013 RMK A01 T00721054  RH  040%=      5-min Rain = 0
KLD1 250223Z 09010KT 07/M05 A3013 RMK A01 T00721054  RH  040%=      5-min Rain = 0
KLD1 250224Z 09010KT 07/M05 A3013 RMK A01 T00721054  RH  040%=      5-min Rain = 0
KLD1 250225Z 09010KT 07/M05 A3013 RMK A01 T00731054  RH  040%=      5-min Rain = 0
KLD1 250226Z 09010KT 07/M05 A3013 RMK A01 T00731054  RH  040%=      5-min Rain = 0
KLD1 250227Z 09010KT 07/M05 A3013 RMK A01 T00731054  RH  040%=      5-min Rain = 0
KLD1 250228Z 09010KT 07/M05 A3013 RMK A01 T00731054  RH  040%=      5-min Rain = 0
KLD1 250229Z 09010KT 07/M05 A3013 RMK A01 T00731054  RH  040%=      5-min Rain = 0
KLD1 250230Z 09009KT 07/M05 A3013 RMK A01 T00721054  RH  040%=      5-min Rain = 0
KLD1 250231Z 09010KT 07/M05 A3013 RMK A01 T00721054  RH  041%=      5-min Rain = 0
KLD1 250232Z 09010KT 07/M05 A3013 RMK A01 T00721053  RH  041%=      5-min Rain = 0
KLD1 250233Z 09010KT 07/M05 A3013 RMK A01 T00721053  RH  041%=      5-min Rain = 0
KLD1 250234Z 09010KT 07/M05 A3013 RMK A01 T00721053  RH  041%=      5-min Rain = 0
KLD1 250235Z 09010KT 07/M05 A3013 RMK A01 T00721053  RH  041%=      5-min Rain = 0
KLD1 250236Z 09010KT 07/M05 A3013 RMK A01 T00721053  RH  041%=      5-min Rain = 0
KLD1 250237Z 09010KT 07/M05 A3013 RMK A01 T00721053  RH  041%=      5-min Rain = 0
KLD1 250238Z 09010KT 07/M05 A3013 RMK A01 T00721053  RH  041%=      5-min Rain = 0
KLD1 250239Z 09010KT 07/M05 A3013 RMK A01 T00731052  RH  041%=      5-min Rain = 0
KLD1 250240Z 09010KT 07/M05 A3013 RMK A01 T00731053  RH  041%=      5-min Rain = 0
KLD1 250241Z 09010KT 07/M05 A3013 RMK A01 T00731052  RH  040%=      5-min Rain = 0
KLD1 250242Z 09011KT 07/M05 A3013 RMK A01 T00731052  RH  040%=      5-min Rain = 0
KLD1 250243Z 09011KT 07/M05 A3013 RMK A01 T00731052  RH  041%=      5-min Rain = 0
KLD1 250244Z 09011KT 07/M05 A3013 RMK A01 T00731052  RH  041%=      5-min Rain = 0
KLD1 250245Z 09011KT 07/M05 A3013 RMK A01 T00731052  RH  041%=      5-min Rain = 0
KLD1 250246Z 09010KT 07/M05 A3013 RMK A01 T00721053  RH  041%=      5-min Rain = 0
KLD1 250247Z 09010KT 07/M05 A3013 RMK A01 T00711053  RH  041%=      5-min Rain = 0
KLD1 250248Z 09010KT 07/M05 A3013 RMK A01 T00701053  RH  041%=      5-min Rain = 0
KLD1 250249Z 09010KT 07/M05 A3013 RMK A01 T00691053  RH  041%=      5-min Rain = 0
KLD1 250250Z 09010KT 07/M05 A3013 RMK A01 T00681054  RH  041%=      5-min Rain = 0
KLD1 250251Z 09011KT 07/M05 A3013 RMK A01 T00681054  RH  042%=      5-min Rain = 0
KLD1 250252Z 09010KT 07/M05 A3014 RMK A01 T00681054  RH  042%=      5-min Rain = 0
KLD1 250253Z 09011KT 07/M05 A3014 RMK A01 T00671053  RH  042%=      5-min Rain = 0
KLD1 250254Z 08011KT 07/M05 A3014 RMK A01 T00671053  RH  042%=      5-min Rain = 0
KLD1 250255Z 08011KT 07/M05 A3014 RMK A01 T00681053  RH  042%=      5-min Rain = 0
KLD1 250256Z 08012KT 07/M05 A3014 RMK A01 T00681053  RH  042%=      5-min Rain = 0
KLD1 250257Z 08012KT 07/M05 A3014 RMK A01 T00691053  RH  041%=      5-min Rain = 0
KLD1 250258Z 08011KT 07/M05 A3014 RMK A01 T00701053  RH  041%=      5-min Rain = 0
KLD1 250259Z 08011KT 07/M05 A3014 RMK A01 T00701053  RH  041%=      5-min Rain = 0
KLD1 250300Z 08011KT 07/M05 A3014 RMK A01 T00701053  RH  041%=      5-min Rain = 0
KLD1 250301Z 09011KT 07/M05 A3014 RMK A01 T00701053  RH  041%=      5-min Rain = 0
KLD1 250302Z 09011KT 07/M05 A3014 RMK A01 T00691053  RH  041%=      5-min Rain = 0
KLD1 250303Z 09011KT 07/M05 A3014 RMK A01 T00691053  RH  041%=      5-min Rain = 0
KLD1 250304Z 09011KT 07/M05 A3014 RMK A01 T00691053  RH  041%=      5-min Rain = 0
KLD1 250305Z 09011KT 07/M05 A3014 RMK A01 T00691053  RH  041%=      5-min Rain = 0
KLD1 250306Z 09011KT 07/M05 A3014 RMK A01 T00681053  RH  042%=      5-min Rain = 0
KLD1 250307Z 09011KT 07/M05 A3014 RMK A01 T00681053  RH  042%=      5-min Rain = 0
KLD1 250308Z 09011KT 07/M05 A3014 RMK A01 T00681053  RH  042%=      5-min Rain = 0
KLD1 250309Z 09011KT 07/M05 A3014 RMK A01 T00671053  RH  042%=      5-min Rain = 0
KLD1 250310Z 09011KT 07/M05 A3014 RMK A01 T00671053  RH  042%=      5-min Rain = 0
KLD1 250311Z 09011KT 07/M05 A3014 RMK A01 T00671053  RH  042%=      5-min Rain = 0
KLD1 250312Z 09011KT 07/M05 A3014 RMK A01 T00671053  RH  042%=      5-min Rain = 0
KLD1 250313Z 09011KT 07/M05 A3014 RMK A01 T00661053  RH  042%=      5-min Rain = 0
KLD1 250314Z 09011KT 07/M05 A3014 RMK A01 T00661053  RH  043%=      5-min Rain = 0
KLD1 250315Z 09012KT 07/M05 A3013 RMK A01 T00651053  RH  043%=      5-min Rain = 0
KLD1 250316Z 09012KT 07/M05 A3013 RMK A01 T00651053  RH  043%=      5-min Rain = 0
KLD1 250317Z 09012KT 07/M05 A3013 RMK A01 T00651052  RH  043%=      5-min Rain = 0
KLD1 250318Z 09012KT 07/M05 A3013 RMK A01 T00651052  RH  043%=      5-min Rain = 0
KLD1 250319Z 09012KT 07/M05 A3013 RMK A01 T00651052  RH  043%=      5-min Rain = 0
KLD1 250320Z 09012KT 07/M05 A3013 RMK A01 T00651052  RH  043%=      5-min Rain = 0
KLD1 250321Z 09012KT 07/M05 A3013 RMK A01 T00651052  RH  043%=      5-min Rain = 0
KLD1 250322Z 09012KT 07/M05 A3013 RMK A01 T00651052  RH  043%=      5-min Rain = 0
KLD1 250323Z 09011KT 07/M05 A3013 RMK A01 T00651051  RH  043%=      5-min Rain = 0
KLD1 250324Z 09012KT 07/M05 A3013 RMK A01 T00651052  RH  043%=      5-min Rain = 0
KLD1 250325Z 09011KT 07/M05 A3014 RMK A01 T00651051  RH  043%=      5-min Rain = 0
KLD1 250326Z 09012KT 07/M05 A3014 RMK A01 T00651051  RH  043%=      5-min Rain = 0
KLD1 250327Z 09011KT 07/M05 A3014 RMK A01 T00651051  RH  043%=      5-min Rain = 0
KLD1 250328Z 09012KT 06/M05 A3014 RMK A01 T00641052  RH  043%=      5-min Rain = 0
KLD1 250329Z 09012KT 06/M05 A3014 RMK A01 T00641051  RH  044%=      5-min Rain = 0
KLD1 250330Z 09011KT 06/M05 A3014 RMK A01 T00631051  RH  044%=      5-min Rain = 0
KLD1 250331Z 08011KT 06/M05 A3014 RMK A01 T00631051  RH  044%=      5-min Rain = 0
KLD1 250332Z 08011KT 06/M05 A3014 RMK A01 T00631051  RH  044%=      5-min Rain = 0
KLD1 250333Z 08011KT 06/M05 A3014 RMK A01 T00621051  RH  044%=      5-min Rain = 0
KLD1 250334Z 09011KT 06/M05 A3014 RMK A01 T00611052  RH  044%=      5-min Rain = 0
KLD1 250335Z 09011KT 06/M05 A3014 RMK A01 T00611051  RH  044%=      5-min Rain = 0
KLD1 250336Z 09011KT 06/M05 A3014 RMK A01 T00611052  RH  044%=      5-min Rain = 0
KLD1 250337Z 09011KT 06/M05 A3014 RMK A01 T00601052  RH  044%=      5-min Rain = 0
KLD1 250338Z 09011KT 06/M05 A3014 RMK A01 T00601052  RH  045%=      5-min Rain = 0
KLD1 250339Z 09012KT 06/M05 A3014 RMK A01 T00591052  RH  045%=      5-min Rain = 0
KLD1 250340Z 09012KT 06/M05 A3014 RMK A01 T00591051  RH  045%=      5-min Rain = 0
KLD1 250341Z 09012KT 06/M05 A3014 RMK A01 T00601051  RH  045%=      5-min Rain = 0
KLD1 250342Z 09012KT 06/M05 A3014 RMK A01 T00601051  RH  045%=      5-min Rain = 0
KLD1 250343Z 09012KT 06/M05 A3014 RMK A01 T00601051  RH  045%=      5-min Rain = 0
KLD1 250344Z 09011KT 06/M05 A3014 RMK A01 T00601051  RH  045%=      5-min Rain = 0
KLD1 250345Z 09011KT 06/M05 A3015 RMK A01 T00601051  RH  045%=      5-min Rain = 0
KLD1 250346Z 09011KT 06/M05 A3015 RMK A01 T00601051  RH  045%=      5-min Rain = 0
KLD1 250347Z 09011KT 06/M05 A3015 RMK A01 T00591051  RH  045%=      5-min Rain = 0
KLD1 250348Z 09011KT 06/M05 A3015 RMK A01 T00591051  RH  045%=      5-min Rain = 0
KLD1 250349Z 09011KT 06/M05 A3015 RMK A01 T00581051  RH  045%=      5-min Rain = 0
KLD1 250350Z 09011KT 06/M05 A3015 RMK A01 T00571052  RH  045%=      5-min Rain = 0
KLD1 250351Z 09011KT 06/M05 A3015 RMK A01 T00561052  RH  046%=      5-min Rain = 0
KLD1 250352Z 09010KT 06/M05 A3015 RMK A01 T00551052  RH  046%=      5-min Rain = 0
KLD1 250353Z 09010KT 05/M05 A3015 RMK A01 T00541052  RH  046%=      5-min Rain = 0
KLD1 250354Z 09010KT 05/M05 A3015 RMK A01 T00541052  RH  046%=      5-min Rain = 0
KLD1 250355Z 09010KT 05/M05 A3015 RMK A01 T00541053  RH  046%=      5-min Rain = 0
KLD1 250356Z 09010KT 05/M05 A3015 RMK A01 T00531053  RH  046%=      5-min Rain = 0
KLD1 250357Z 09010KT 05/M05 A3015 RMK A01 T00531052  RH  046%=      5-min Rain = 0
KLD1 250358Z 09010KT 05/M05 A3015 RMK A01 T00531052  RH  046%=      5-min Rain = 0
KLD1 250359Z 09010KT 05/M05 A3015 RMK A01 T00531052  RH  046%=      5-min Rain = 0
KLD1 250400Z 09010KT 05/M05 A3015 RMK A01 T00531053  RH  046%=      5-min Rain = 0
KLD1 250401Z 09009KT 05/M05 A3015 RMK A01 T00531053  RH  046%=      5-min Rain = 0
KLD1 250402Z 09010KT 05/M05 A3015 RMK A01 T00531053  RH  046%=      5-min Rain = 0
KLD1 250403Z 09010KT 05/M05 A3015 RMK A01 T00531053  RH  046%=      5-min Rain = 0
KLD1 250404Z 09009KT 05/M05 A3015 RMK A01 T00531053  RH  046%=      5-min Rain = 0
KLD1 250405Z 09009KT 05/M05 A3015 RMK A01 T00521053  RH  046%=      5-min Rain = 0
KLD1 250406Z 09009KT 05/M05 A3016 RMK A01 T00521053  RH  047%=      5-min Rain = 0
KLD1 250407Z 08009KT 05/M05 A3016 RMK A01 T00521053  RH  047%=      5-min Rain = 0
KLD1 250408Z 09009KT 05/M05 A3016 RMK A01 T00521053  RH  047%=      5-min Rain = 0
KLD1 250409Z 09009KT 05/M05 A3016 RMK A01 T00521053  RH  047%=      5-min Rain = 0
KLD1 250410Z 09009KT 05/M05 A3016 RMK A01 T00521053  RH  047%=      5-min Rain = 0
KLD1 250411Z 09009KT 05/M05 A3016 RMK A01 T00521053  RH  047%=      5-min Rain = 0
KLD1 250412Z 09009KT 05/M05 A3016 RMK A01 T00521053  RH  047%=      5-min Rain = 0
KLD1 250413Z 09009KT 05/M05 A3016 RMK A01 T00521053  RH  047%=      5-min Rain = 0
KLD1 250414Z 09009KT 05/M05 A3016 RMK A01 T00511053  RH  047%=      5-min Rain = 0
KLD1 250415Z 09009KT 05/M05 A3016 RMK A01 T00511053  RH  047%=      5-min Rain = 0
KLD1 250416Z 09010KT 05/M05 A3016 RMK A01 T00511053  RH  047%=      5-min Rain = 0
KLD1 250417Z 09010KT 05/M05 A3016 RMK A01 T00511054  RH  047%=      5-min Rain = 0
KLD1 250418Z 09009KT 05/M05 A3016 RMK A01 T00511053  RH  047%=      5-min Rain = 0
KLD1 250419Z 09009KT 05/M05 A3016 RMK A01 T00511053  RH  047%=      5-min Rain = 0
KLD1 250420Z 09009KT 05/M05 A3016 RMK A01 T00511053  RH  047%=      5-min Rain = 0
KLD1 250421Z 09009KT 05/M05 A3016 RMK A01 T00511053  RH  047%=      5-min Rain = 0
KLD1 250422Z 09009KT 05/M05 A3016 RMK A01 T00511053  RH  047%=      5-min Rain = 0
KLD1 250423Z 09009KT 05/M05 A3016 RMK A01 T00501053  RH  047%=      5-min Rain = 0
KLD1 250424Z 09009KT 05/M05 A3016 RMK A01 T00501054  RH  047%=      5-min Rain = 0
KLD1 250425Z 09010KT 05/M05 A3016 RMK A01 T00491054  RH  047%=      5-min Rain = 0
KLD1 250426Z 09009KT 05/M05 A3016 RMK A01 T00491054  RH  047%=      5-min Rain = 0
KLD1 250427Z 09010KT 05/M05 A3016 RMK A01 T00481054  RH  047%=      5-min Rain = 0
KLD1 250428Z 09010KT 05/M05 A3016 RMK A01 T00481054  RH  047%=      5-min Rain = 0
KLD1 250429Z 09010KT 05/M05 A3016 RMK A01 T00481054  RH  047%=      5-min Rain = 0
KLD1 250430Z 09010KT 05/M06 A3016 RMK A01 T00481055  RH  047%=      5-min Rain = 0
KLD1 250431Z 09010KT 05/M06 A3016 RMK A01 T00471055  RH  048%=      5-min Rain = 0
KLD1 250432Z 09010KT 05/M06 A3016 RMK A01 T00471055  RH  048%=      5-min Rain = 0
KLD1 250433Z 09010KT 05/M06 A3016 RMK A01 T00461055  RH  048%=      5-min Rain = 0
KLD1 250434Z 09010KT 05/M06 A3016 RMK A01 T00461055  RH  048%=      5-min Rain = 0
KLD1 250435Z 09010KT 05/M06 A3016 RMK A01 T00461055  RH  048%=      5-min Rain = 0
KLD1 250436Z 09010KT 05/M06 A3016 RMK A01 T00461055  RH  048%=      5-min Rain = 0
KLD1 250437Z 09010KT 05/M06 A3016 RMK A01 T00461055  RH  048%=      5-min Rain = 0
KLD1 250438Z 09010KT 05/M06 A3016 RMK A01 T00461055  RH  048%=      5-min Rain = 0
KLD1 250439Z 09011KT 05/M06 A3016 RMK A01 T00461056  RH  048%=      5-min Rain = 0
KLD1 250440Z 09010KT 05/M06 A3016 RMK A01 T00461056  RH  048%=      5-min Rain = 0
KLD1 250441Z 09010KT 05/M06 A3016 RMK A01 T00461056  RH  048%=      5-min Rain = 0
KLD1 250442Z 09010KT 05/M06 A3016 RMK A01 T00461056  RH  048%=      5-min Rain = 0
KLD1 250443Z 09010KT 05/M06 A3016 RMK A01 T00461056  RH  047%=      5-min Rain = 0
KLD1 250444Z 09010KT 05/M06 A3016 RMK A01 T00461056  RH  047%=      5-min Rain = 0
KLD1 250445Z 09010KT 05/M06 A3016 RMK A01 T00461056  RH  047%=      5-min Rain = 0
KLD1 250446Z 09010KT 05/M06 A3017 RMK A01 T00461056  RH  047%=      5-min Rain = 0
KLD1 250447Z 10010KT 05/M06 A3017 RMK A01 T00461056  RH  047%=      5-min Rain = 0
KLD1 250448Z 09010KT 05/M06 A3017 RMK A01 T00461056  RH  047%=      5-min Rain = 0
KLD1 250449Z 10010KT 05/M06 A3017 RMK A01 T00461056  RH  047%=      5-min Rain = 0
KLD1 250450Z 10010KT 05/M06 A3017 RMK A01 T00451056  RH  048%=      5-min Rain = 0
KLD1 250451Z 10010KT 05/M06 A3017 RMK A01 T00451056  RH  048%=      5-min Rain = 0
KLD1 250452Z 10009KT 04/M06 A3017 RMK A01 T00441056  RH  048%=      5-min Rain = 0
KLD1 250453Z 10009KT 04/M06 A3017 RMK A01 T00431056  RH  049%=      5-min Rain = 0
KLD1 250454Z 10010KT 04/M06 A3017 RMK A01 T00421056  RH  049%=      5-min Rain = 0
KLD1 250455Z 10010KT 04/M06 A3016 RMK A01 T00421056  RH  049%=      5-min Rain = 0
KLD1 250456Z 10010KT 04/M06 A3016 RMK A01 T00421056  RH  049%=      5-min Rain = 0
KLD1 250457Z 11010KT 04/M06 A3017 RMK A01 T00421056  RH  049%=      5-min Rain = 0
KLD1 250458Z 11010KT 04/M06 A3017 RMK A01 T00431057  RH  048%=      5-min Rain = 0
KLD1 250459Z 11010KT 04/M06 A3017 RMK A01 T00441057  RH  048%=      5-min Rain = 0
KLD1 250500Z 11011KT 05/M06 A3017 RMK A01 T00451057  RH  047%=      5-min Rain = 0
KLD1 250501Z 11011KT 05/M06 A3017 RMK A01 T00461058  RH  047%=      5-min Rain = 0
KLD1 250502Z 10011KT 05/M06 A3017 RMK A01 T00471058  RH  047%=      5-min Rain = 0
KLD1 250503Z 10012KT 05/M06 A3017 RMK A01 T00471058  RH  046%=      5-min Rain = 0
KLD1 250504Z 10012KT 05/M06 A3017 RMK A01 T00471059  RH  046%=      5-min Rain = 0
KLD1 250505Z 10013KT 05/M06 A3017 RMK A01 T00481059  RH  046%=      5-min Rain = 0
KLD1 250506Z 10012KT 05/M06 A3017 RMK A01 T00491059  RH  045%=      5-min Rain = 0
KLD1 250507Z 10012KT 05/M06 A3017 RMK A01 T00501059  RH  045%=      5-min Rain = 0
KLD1 250508Z 10013KT 05/M06 A3017 RMK A01 T00501059  RH  045%=      5-min Rain = 0
KLD1 250509Z 10013KT 05/M06 A3017 RMK A01 T00511060  RH  045%=      5-min Rain = 0
KLD1 250510Z 10013KT 05/M06 A3017 RMK A01 T00521060  RH  044%=      5-min Rain = 0
KLD1 250511Z 10013KT 05/M06 A3017 RMK A01 T00521060  RH  044%=      5-min Rain = 0
KLD1 250512Z 10014KT 05/M06 A3017 RMK A01 T00531060  RH  044%=      5-min Rain = 0
KLD1 250513Z 10014KT 05/M06 A3017 RMK A01 T00531061  RH  044%=      5-min Rain = 0
KLD1 250514Z 10014KT 05/M06 A3017 RMK A01 T00531061  RH  044%=      5-min Rain = 0
KLD1 250515Z 10014KT 05/M06 A3017 RMK A01 T00531061  RH  044%=      5-min Rain = 0
KLD1 250516Z 10014KT 05/M06 A3017 RMK A01 T00531061  RH  044%=      5-min Rain = 0
KLD1 250517Z 10014KT 05/M06 A3017 RMK A01 T00531061  RH  044%=      5-min Rain = 0
KLD1 250518Z 10014KT 05/M06 A3017 RMK A01 T00531061  RH  044%=      5-min Rain = 0
KLD1 250519Z 10014KT 05/M06 A3017 RMK A01 T00531061  RH  044%=      5-min Rain = 0
KLD1 250520Z 10014KT 05/M06 A3017 RMK A01 T00531061  RH  044%=      5-min Rain = 0
KLD1 250521Z 10014KT 05/M06 A3017 RMK A01 T00531061  RH  044%=      5-min Rain = 0
KLD1 250522Z 10014KT 05/M06 A3017 RMK A01 T00531061  RH  044%=      5-min Rain = 0
KLD1 250523Z 10014KT 05/M06 A3017 RMK A01 T00521061  RH  044%=      5-min Rain = 0
KLD1 250524Z 10013KT 05/M06 A3017 RMK A01 T00521061  RH  044%=      5-min Rain = 0
KLD1 250525Z 10012KT 05/M06 A3017 RMK A01 T00521061  RH  044%=      5-min Rain = 0
KLD1 250526Z 10012KT 05/M06 A3017 RMK A01 T00511061  RH  044%=      5-min Rain = 0
KLD1 250527Z 10012KT 05/M06 A3017 RMK A01 T00501061  RH  045%=      5-min Rain = 0
KLD1 250528Z 10011KT 05/M06 A3017 RMK A01 T00491061  RH  045%=      5-min Rain = 0
KLD1 250529Z 10011KT 05/M06 A3017 RMK A01 T00491061  RH  045%=      5-min Rain = 0
KLD1 250530Z 10011KT 05/M06 A3017 RMK A01 T00491060  RH  045%=      5-min Rain = 0
KLD1 250531Z 10011KT 05/M06 A3017 RMK A01 T00481060  RH  045%=      5-min Rain = 0
KLD1 250532Z 10011KT 05/M06 A3017 RMK A01 T00481060  RH  045%=      5-min Rain = 0
KLD1 250533Z 10011KT 05/M06 A3017 RMK A01 T00481060  RH  045%=      5-min Rain = 0
KLD1 250534Z 10011KT 05/M06 A3017 RMK A01 T00481060  RH  045%=      5-min Rain = 0
KLD1 250535Z 10011KT 05/M06 A3017 RMK A01 T00471061  RH  045%=      5-min Rain = 0
KLD1 250536Z 10011KT 05/M06 A3017 RMK A01 T00471061  RH  046%=      5-min Rain = 0
KLD1 250537Z 10010KT 05/M06 A3017 RMK A01 T00461061  RH  046%=      5-min Rain = 0
KLD1 250538Z 10011KT 05/M06 A3017 RMK A01 T00461061  RH  046%=      5-min Rain = 0
KLD1 250539Z 10011KT 05/M06 A3017 RMK A01 T00451061  RH  046%=      5-min Rain = 0
KLD1 250540Z 10011KT 05/M06 A3017 RMK A01 T00451061  RH  046%=      5-min Rain = 0
KLD1 250541Z 10010KT 05/M06 A3017 RMK A01 T00451061  RH  046%=      5-min Rain = 0
KLD1 250542Z 10011KT 04/M06 A3017 RMK A01 T00441061  RH  046%=      5-min Rain = 0
KLD1 250543Z 10011KT 04/M06 A3017 RMK A01 T00441061  RH  046%=      5-min Rain = 0
KLD1 250544Z 10011KT 04/M06 A3017 RMK A01 T00441061  RH  046%=      5-min Rain = 0
KLD1 250545Z 10010KT 04/M06 A3017 RMK A01 T00441061  RH  047%=      5-min Rain = 0
KLD1 250546Z 10010KT 04/M06 A3017 RMK A01 T00431061  RH  047%=      5-min Rain = 0
KLD1 250547Z 10009KT 04/M06 A3017 RMK A01 T00431061  RH  047%=      5-min Rain = 0
KLD1 250548Z 10009KT 04/M06 A3017 RMK A01 T00421061  RH  047%=      5-min Rain = 0
KLD1 250549Z 10009KT 04/M06 A3017 RMK A01 T00411061  RH  047%=      5-min Rain = 0
KLD1 250550Z 10010KT 04/M06 A3017 RMK A01 T00411061  RH  048%=      5-min Rain = 0
KLD1 250551Z 10010KT 04/M06 A3017 RMK A01 T00411060  RH  048%=      5-min Rain = 0
KLD1 250552Z 10010KT 04/M06 A3017 RMK A01 T00401060  RH  048%=      5-min Rain = 0
KLD1 250553Z 10009KT 04/M06 A3017 RMK A01 T00401060  RH  048%=      5-min Rain = 0
KLD1 250554Z 10010KT 04/M06 A3017 RMK A01 T00401060  RH  048%=      5-min Rain = 0
KLD1 250555Z 10009KT 04/M06 A3017 RMK A01 T00391061  RH  048%=      5-min Rain = 0
KLD1 250556Z 10010KT 04/M06 A3017 RMK A01 T00391061  RH  048%=      5-min Rain = 0
KLD1 250557Z 10009KT 04/M06 A3017 RMK A01 T00391061  RH  048%=      5-min Rain = 0
KLD1 250558Z 10009KT 04/M06 A3017 RMK A01 T00391061  RH  048%=      5-min Rain = 0
KLD1 250559Z 10009KT 04/M06 A3017 RMK A01 T00381061  RH  048%=      5-min Rain = 0

Page generated in 0.0647 seconds.